Graceful Lady — 00 — position and weather

sailwx.info

Track history (hours):
 
Tides and Currents Weather Stations Pressure Air Temp Water Temp Dewpoint Dewpoint Depression Visibility Wind Speed Wind Dir Waves Ship Positions

Graceful Lady

Last reported at 2017-Feb-20 01:33 UTC. Time now 2017-Feb-20 01:39 UTC.
Position N 31°15' E 122°05'.

Length 6 m.

Type: Pollution control. MMSI: 316014038.

Date/timePositionNaut miles runAvg speedWind from/ knotsBaromVisibWave heightAir tempDewpointWater temp
2017-Feb-20 01:33N 31°15' E 122°05'39313.3
2017-Feb-20 01:26N 31°30' E 121°23'3944.6
2017-Feb-20 00:33N 31°15' E 122°05'39633.6
2017-Feb-20 00:30N 31°30' E 121°23'3941.6
2017-Feb-19 23:33N 31°15' E 122°05'396697.9
2017-Feb-19 23:33N 31°30' E 121°23'3939.1
2017-Feb-19 22:33N 31°15' E 122°05'396697.9
2017-Feb-19 22:33N 31°30' E 121°23'0 0.0
2017-Feb-19 21:33N 31°30' E 121°23'0 0.0
2017-Feb-19 20:33N 31°30' E 121°23'398791.0
2017-Feb-19 20:33N 31°15' E 122°05'3939.1
2017-Feb-19 19:33N 31°30' E 121°23'392268.8
2017-Feb-19 19:32N 31°15' E 122°05'0 0.0
2017-Feb-19 18:33N 31°15' E 122°05'39445.1
2017-Feb-19 18:28N 31°30' E 121°23'3942.7
2017-Feb-19 17:33N 31°15' E 122°05'0 0.0
2017-Feb-19 16:33N 31°15' E 122°05'413403.5
2017-Feb-19 16:32N 31°31' E 121°22'731152745.7
2017-Feb-19 16:24N 05°18' W 004°03'732326846.2
2017-Feb-19 16:08N 31°15' E 121°33'2849.4
2017-Feb-19 15:33N 31°15' E 122°05'735267864.9
2017-Feb-19 15:27N 05°17' W 004°01'73528253.0
2017-Feb-19 14:33N 31°15' E 122°05'7352139301.6
2017-Feb-19 14:30N 05°17' W 004°01'73527714.2
2017-Feb-19 13:33N 31°15' E 122°05'73525293457.6
2017-Feb-19 13:33N 05°17' W 004°01'7174153727.2
2017-Feb-19 13:30N 24°07' E 118°03'478505.1
2017-Feb-19 12:33N 31°15' E 122°05'46926816.7
2017-Feb-19 12:32N 24°14' E 118°10'717933653.6
2017-Feb-19 12:20N 05°17' W 004°01'71769353.3
2017-Feb-19 11:34N 24°23' E 118°07'46397958.3
2017-Feb-19 11:33N 31°15' E 122°05'465467.6
2017-Feb-19 10:33N 24°24' E 117°58'465279288.3
2017-Feb-19 10:33N 31°15' E 122°05'466466.9
2017-Feb-19 09:34N 24°24' E 117°57'46634950.8
2017-Feb-19 09:33N 31°15' E 122°05'0 0.0
2017-Feb-19 08:33N 31°15' E 122°05'466559206.2
2017-Feb-19 08:33N 24°24' E 117°57'4772898.1
2017-Feb-19 08:23N 32°02' E 120°27'477572.1
2017-Feb-19 07:33N 24°24' E 117°57'46664523.8
2017-Feb-19 07:33N 31°15' E 122°05'466469.4
2017-Feb-19 06:33N 24°24' E 117°57'46635694.0
2017-Feb-19 06:33N 31°15' E 122°05'0 0.0
2017-Feb-19 05:33N 31°15' E 122°05'466559225.4
2017-Feb-19 05:33N 24°24' E 117°57'716734310.7
2017-Feb-19 05:21N 05°16' W 004°02'71679091.5
2017-Feb-19 04:33N 24°24' E 117°57'46664525.3
2017-Feb-19 04:33N 31°15' E 122°05'30356.5
2017-Feb-19 04:28N 31°15' E 121°30'452497.8
2017-Feb-19 03:33N 24°24' E 117°57'466335539.1
2017-Feb-19 03:33N 31°15' E 122°05'466465.5
2017-Feb-19 02:33N 24°24' E 117°57'466335539.1
2017-Feb-19 02:33N 31°15' E 122°05'7353912826.3
2017-Feb-19 02:33N 05°16' W 004°02'730916674.9
2017-Feb-19 02:06N 31°31' E 121°20'463843.1
2017-Feb-19 01:33N 24°24' E 117°57'463834042.2
2017-Feb-19 01:33N 31°29' E 121°25'3711174.3
2017-Feb-19 01:33N 31°15' E 122°05'7353300818.4
2017-Feb-19 01:32N 05°16' W 004°02'71677380.3
2017-Feb-19 00:34N 24°24' E 117°57'46698686.9
2017-Feb-19 00:33N 31°15' E 122°05'7353113128.2
2017-Feb-19 00:29N 05°16' W 004°02'73327884.4
2017-Feb-18 23:34N 31°18' E 121°43'198618.0
2017-Feb-18 23:33N 31°15' E 122°05'4663874.5
2017-Feb-18 23:26N 24°24' E 117°57'7167293199.4
2017-Feb-18 23:25N 05°16' W 004°02'73418605.0
2017-Feb-18 22:34N 31°11' E 121°51'135141.9
2017-Feb-18 22:33N 31°15' E 122°05'73536618001.7
2017-Feb-18 22:33N 05°16' W 004°02'7278247171.7
2017-Feb-18 22:32N 31°58' E 120°50'4794739.5
2017-Feb-18 22:25N 24°24' E 117°57'2 2.5
2017-Feb-18 21:34N 24°24' E 117°59'465209093.6
2017-Feb-18 21:33N 31°15' E 122°05'101139.6
2017-Feb-18 21:33N 31°05' E 122°01'735061823.2
2017-Feb-18 21:26N 05°16' W 004°02'727824670.6
2017-Feb-18 21:08N 31°58' E 120°50'478830.0
2017-Feb-18 20:33N 24°25' E 117°60'464417738.9
2017-Feb-18 20:33N 31°15' E 122°05'735331971.0
2017-Feb-18 20:20N 05°16' W 004°02'71749337.5
2017-Feb-18 19:34N 24°25' E 118°04'462207976.4
2017-Feb-18 19:33N 31°15' E 122°05'78508.0
2017-Feb-18 19:24N 31°58' E 120°50'477564.3
2017-Feb-18 18:33N 24°23' E 118°06'463118956.9
2017-Feb-18 18:33N 31°15' E 122°05'735323891.7
2017-Feb-18 18:15N 05°16' W 004°02'728048179.0
2017-Feb-18 18:06N 31°56' E 120°52'476887.5
2017-Feb-18 17:34N 24°23' E 118°06'463237908.2
2017-Feb-18 17:33N 31°15' E 122°05'73535294401.0
2017-Feb-18 17:33N 05°16' W 004°02'728262716.8
2017-Feb-18 17:26N 31°53' E 120°54'473536.7
2017-Feb-18 16:33N 24°23' E 118°06'463333083.1
2017-Feb-18 16:33N 31°15' E 122°05'682649.2
2017-Feb-18 16:32N 31°48' E 120°56'728575797.0
2017-Feb-18 16:26N 05°16' W 004°02'72898320.3
2017-Feb-18 15:34N 31°45' E 121°01'468842644.0
2017-Feb-18 15:33N 24°23' E 118°06'463277612.8
2017-Feb-18 15:33N 31°15' E 122°05'7352420115.3
2017-Feb-18 15:32N 05°17' W 004°01'71757317.4
2017-Feb-18 14:34N 24°23' E 118°06'46397979.9
2017-Feb-18 14:33N 31°15' E 122°05'631078.7
2017-Feb-18 14:30N 31°45' E 121°01'728828426.2
2017-Feb-18 14:14N 05°17' W 004°01'717510543.1
2017-Feb-18 13:33N 24°23' E 118°06'46397981.0
2017-Feb-18 13:33N 31°15' E 122°05'637586.8
2017-Feb-18 13:33N 31°45' E 121°01'468474.2
2017-Feb-18 12:33N 24°23' E 118°06'463277609.6
2017-Feb-18 12:33N 31°15' E 122°05'637342.1
2017-Feb-18 12:33N 31°45' E 121°01'2163.6
2017-Feb-18 12:13N 31°31' E 121°20'7308279861.8
2017-Feb-18 12:11N 05°17' W 004°01'717811454.9
2017-Feb-18 11:33N 24°21' E 118°09'464238390.0
2017-Feb-18 11:33N 31°15' E 122°05'63234.6
2017-Feb-18 11:17N 31°45' E 121°01'474650.8
2017-Feb-18 10:33N 24°15' E 118°11'468421241.4
2017-Feb-18 10:33N 31°15' E 122°05'631315.6
2017-Feb-18 10:31N 31°45' E 121°01'0 0.0
2017-Feb-18 09:34N 31°45' E 121°01'6313388.5
2017-Feb-18 09:33N 31°15' E 122°05'0 0.0
2017-Feb-18 08:33N 31°15' E 122°05'63151.4
2017-Feb-18 08:08N 31°45' E 121°01'63107.0
2017-Feb-18 07:33N 31°15' E 122°05'631127.0
2017-Feb-18 07:29N 31°45' E 121°01'5 5.0
2017-Feb-18 06:34N 31°44' E 121°06'5930146.5
2017-Feb-18 06:33N 31°15' E 122°05'11144.4
2017-Feb-18 06:29N 31°04' E 122°03'5761.3
2017-Feb-18 05:34N 31°41' E 121°12'5323691.0
2017-Feb-18 05:33N 31°15' E 122°05'1140434.3
2017-Feb-18 05:33N 31°07' E 121°56'8 8.1
2017-Feb-18 04:34N 31°12' E 121°49'143262.2
2017-Feb-18 04:33N 31°15' E 122°05'5089594.1
2017-Feb-18 04:33N 31°38' E 121°14'0 0.0
2017-Feb-18 03:34N 31°38' E 121°14'5022398.5
2017-Feb-18 03:33N 31°15' E 122°05'1412785.4
2017-Feb-18 03:33N 31°11' E 121°49'1 0.5
2017-Feb-18 02:34N 31°11' E 121°50'144951.8
2017-Feb-18 02:33N 31°15' E 122°05'735322320.5
2017-Feb-18 02:14N 05°16' W 004°02'735310970.6
2017-Feb-18 01:33N 31°15' E 122°05'5014934.9
2017-Feb-18 01:33N 31°38' E 121°14'7303445591.0
2017-Feb-18 01:32N 05°16' W 004°02'73537503.4
2017-Feb-18 00:33N 31°15' E 122°05'4511678.0
2017-Feb-18 00:33N 31°35' E 121°18'730721667.7
2017-Feb-18 00:13N 05°16' W 004°02'731211131.1
2017-Feb-17 23:34N 31°31' E 121°24'3917700.5
2017-Feb-17 23:33N 31°15' E 122°05'3332.8
2017-Feb-17 22:34N 31°26' E 121°30'336548.9
2017-Feb-17 22:33N 31°15' E 122°05'0 0.0
2017-Feb-17 21:33N 31°15' E 122°05'2529978.6
2017-Feb-17 21:33N 31°22' E 121°38'8 8.2
2017-Feb-17 20:34N 31°17' E 121°45'186379.5
2017-Feb-17 20:33N 31°15' E 122°05'1212.3
2017-Feb-17 19:34N 31°10' E 121°52'126326.4
2017-Feb-17 19:33N 31°15' E 122°05'52278.9
2017-Feb-17 19:22N 31°40' E 121°12'5 6.6
2017-Feb-17 18:34N 31°36' E 121°17'48174556.9
2017-Feb-17 18:34N 31°05' E 122°00'102310.4
2017-Feb-17 18:33N 31°15' E 122°05'0 0.0
2017-Feb-17 17:33N 31°15' E 122°05'133252.8
2017-Feb-17 17:33N 31°03' E 122°10'516277.8
2017-Feb-17 17:33N 31°32' E 121°22'3535.0
2017-Feb-17 16:33N 31°10' E 121°53'73414404617.2
2017-Feb-17 16:33N 05°17' W 004°01'73523781098.0
2017-Feb-17 16:33N 31°15' E 122°05'73527217.7
2017-Feb-17 15:32N 05°17' W 004°01'73511260257.1
2017-Feb-17 15:32N 31°04' E 122°03'1140757.6
2017-Feb-17 15:32N 31°15' E 122°05'10668629607.1
2017-Feb-17 15:31N 25°48' W 080°11'106301366686.4
2017-Feb-17 15:30N 31°25' E 121°31'3132.9
2017-Feb-17 14:33N 31°15' E 122°05'735240408.2
2017-Feb-17 14:22N 05°17' W 004°01'73528984.2
2017-Feb-17 13:33N 31°15' E 122°05'73523308421.2
2017-Feb-17 13:33N 05°17' W 004°01'73527386.9
2017-Feb-17 12:33N 31°15' E 122°05'7352161386.3
2017-Feb-17 12:31N 05°17' W 004°01'73527705.2
2017-Feb-17 11:33N 31°15' E 122°05'735246434.0
2017-Feb-17 11:24N 05°17' W 004°01'73528735.1
2017-Feb-17 10:33N 31°15' E 122°05'0 0.0
2017-Feb-17 09:33N 31°15' E 122°05'0 0.0
2017-Feb-17 08:33N 31°15' E 122°05'0 0.0
2017-Feb-17 07:34N 31°15' E 122°05'0 0.0
2017-Feb-17 06:33N 31°15' E 122°05'0 0.0
2017-Feb-17 05:33N 31°15' E 122°05'0 0.0
2017-Feb-17 04:33N 31°15' E 122°05'0 0.0
2017-Feb-17 03:33N 31°15' E 122°05'7353413631.4
2017-Feb-17 03:32N 05°16' W 004°02'694516984.7
2017-Feb-17 03:08N 22°32' E 113°52'6831191.7
2017-Feb-17 02:33N 31°15' E 122°05'0 0.0
2017-Feb-17 01:34N 31°15' E 122°05'0 0.0
2017-Feb-17 00:33N 31°15' E 122°05'0 0.0
2017-Feb-16 23:34N 31°15' E 122°05'607912678.8
2017-Feb-16 23:05N 33°37' W 117°55'607911621.7
2017-Feb-16 22:33N 31°15' E 122°05'11196.7
2017-Feb-16 22:30N 31°03' E 122°06'9 9.5
2017-Feb-16 21:33N 31°07' E 121°57'1139111.7
2017-Feb-16 21:33N 31°15' E 122°05'1514.5
2017-Feb-16 20:33N 31°13' E 121°49'154755.3
2017-Feb-16 20:33N 31°15' E 122°05'735392884.8
2017-Feb-16 20:28N 05°16' W 004°02'73538004.9
2017-Feb-16 19:33N 31°15' E 122°05'208020.4
2017-Feb-16 19:33N 31°19' E 121°42'7332599850.7
2017-Feb-16 19:32N 05°16' W 004°02'735861745.4
2017-Feb-16 19:25N 30°36' E 122°05'49359.1
2017-Feb-16 19:17N 31°15' E 121°30'4967.0
2017-Feb-16 18:33N 30°36' E 122°05'3815379.3
2017-Feb-16 18:33N 31°15' E 122°05'7353802184.9
2017-Feb-16 18:32N 05°16' W 004°02'73587486.9
2017-Feb-16 17:34N 30°36' E 122°05'383642.5
2017-Feb-16 17:33N 31°15' E 122°05'3589.6
2017-Feb-16 17:09N 31°28' E 121°27'3558.3
2017-Feb-16 16:33N 31°15' E 122°05'382232.5
2017-Feb-16 16:32N 30°36' E 122°05'3839.1
2017-Feb-16 15:33N 31°15' E 122°05'391651.8
2017-Feb-16 15:32N 31°30' E 121°23'6105116912.8
2017-Feb-16 15:29N 33°37' W 117°55'666434369.9
2017-Feb-16 15:17N 05°16' W 004°02'735839535.4
2017-Feb-16 15:06N 30°36' E 122°05'3870.0
2017-Feb-16 14:33N 31°15' E 122°05'7352146228.6
2017-Feb-16 14:30N 05°17' W 004°01'6664337895.3
2017-Feb-16 14:29N 33°37' W 117°55'60796557.9
2017-Feb-16 13:33N 31°15' E 122°05'607982579.6
2017-Feb-16 13:29N 33°37' W 117°55'666482726.1
2017-Feb-16 13:24N 05°17' W 004°01'735735886.3
2017-Feb-16 13:12N 30°36' E 122°05'3859.9
2017-Feb-16 12:33N 31°15' E 122°05'7352102985.7
2017-Feb-16 12:29N 05°17' W 004°01'666465908.2
2017-Feb-16 12:23N 33°37' W 117°55'610181655.1
2017-Feb-16 12:18N 31°25' E 121°31'57283.3
2017-Feb-16 12:06N 30°36' E 122°05'735713402.9
2017-Feb-16 11:33N 05°17' W 004°01'732326361768.6
2017-Feb-16 11:33N 31°24' E 121°35'5497806.2
2017-Feb-16 11:33N 30°36' E 122°05'383740.9
2017-Feb-16 11:33N 31°15' E 122°05'0 0.0
2017-Feb-16 10:33N 31°15' E 122°05'607979867.1
2017-Feb-16 10:29N 33°37' W 117°55'666417409.6
2017-Feb-16 10:06N 05°16' W 004°02'735313596.4
2017-Feb-16 09:33N 31°15' E 122°05'0 0.0
2017-Feb-16 08:33N 31°15' E 122°05'7353802187.0
2017-Feb-16 08:33N 05°16' W 004°02'73537423.5
2017-Feb-16 07:33N 31°15' E 122°05'0 0.0
2017-Feb-16 06:33N 31°15' E 122°05'0 0.0
2017-Feb-16 05:33N 31°15' E 122°05'607922082.3
2017-Feb-16 05:17N 33°37' W 117°55'60798289.2
2017-Feb-16 04:33N 31°15' E 122°05'173819.8
2017-Feb-16 04:33N 31°16' E 121°46'9 9.3
2017-Feb-16 03:33N 31°10' E 121°53'1241930.2
2017-Feb-16 03:33N 31°15' E 122°05'1110.9
2017-Feb-16 02:34N 31°04' E 122°01'113029.3
2017-Feb-16 02:33N 31°15' E 122°05'0 0.0
2017-Feb-16 01:33N 31°15' E 122°05'151134.6
2017-Feb-16 01:32N 30°60' E 122°10'1515.7
2017-Feb-16 00:33N 31°15' E 122°05'15322.3
2017-Feb-16 00:30N 30°60' E 122°10'1516.3
2017-Feb-15 23:33N 31°15' E 122°05'154647.3
2017-Feb-15 23:33N 30°60' E 122°10'1934616.1
2017-Feb-15 23:33N 31°10' E 121°51'1313.1
2017-Feb-15 22:33N 31°15' E 122°05'1527863.3
2017-Feb-15 22:33N 30°60' E 122°10'2820276.5
2017-Feb-15 22:33N 31°17' E 121°44'73331760004.9
2017-Feb-15 22:33N 05°16' W 004°02'686782956.1
2017-Feb-15 22:28N 49°18' W 122°54'53765918.3
2017-Feb-15 21:33N 31°15' E 122°05'73531203273.8
2017-Feb-15 21:33N 05°16' W 004°02'7326561141.6
2017-Feb-15 21:32N 31°22' E 121°37'402266.3
2017-Feb-15 21:31N 30°57' E 122°13'1919.9
2017-Feb-15 20:33N 31°15' E 122°05'7353401091.0
2017-Feb-15 20:32N 05°16' W 004°02'73537511.9
2017-Feb-15 19:33N 31°15' E 122°05'7353339384.9
2017-Feb-15 19:32N 05°16' W 004°02'73537514.1
2017-Feb-15 18:33N 31°15' E 122°05'735376288.2
2017-Feb-15 18:28N 05°16' W 004°02'686723815.9
2017-Feb-15 18:10N 49°18' W 122°54'53768741.1
2017-Feb-15 17:33N 31°15' E 122°05'53769676347.1
2017-Feb-15 17:33N 49°18' W 122°54'539448187.1
2017-Feb-15 17:27N 31°36' E 121°17'730626540.0
2017-Feb-15 17:10N 05°16' W 004°02'666477637.6
2017-Feb-15 17:05N 33°37' W 117°55'607911548.1
2017-Feb-15 16:33N 31°15' E 122°05'735231926.7
2017-Feb-15 16:20N 05°17' W 004°01'73529517.2
2017-Feb-15 15:33N 31°15' E 122°05'7352189051.6
2017-Feb-15 15:31N 05°17' W 004°01'73527673.9
2017-Feb-15 14:33N 31°15' E 122°05'735284023.0
2017-Feb-15 14:28N 05°17' W 004°01'666423337.2
2017-Feb-15 14:11N 33°37' W 117°55'6101114984.2
2017-Feb-15 14:08N 30°35' E 122°07'4069.1
2017-Feb-15 13:33N 31°15' E 122°05'73521323362.8
2017-Feb-15 13:33N 05°17' W 004°01'73527372.5
2017-Feb-15 12:33N 31°15' E 122°05'30793.8
2017-Feb-15 12:31N 30°45' E 122°13'3031.4
2017-Feb-15 11:33N 31°15' E 122°05'234521.6
2017-Feb-15 11:33N 30°53' E 122°13'736215284.5
2017-Feb-15 11:04N 05°17' W 004°01'735214392.2
2017-Feb-15 10:33N 31°15' E 122°05'151462.0
2017-Feb-15 10:33N 31°00' E 122°08'735836686.3
2017-Feb-15 10:21N 05°16' W 004°02'73499325.0
2017-Feb-15 09:34N 31°05' E 121°59'119674.4
2017-Feb-15 09:33N 31°15' E 122°05'7353362630.4
2017-Feb-15 09:32N 05°16' W 004°02'73407500.7
2017-Feb-15 08:34N 31°10' E 121°51'1315959.3
2017-Feb-15 08:33N 31°15' E 122°05'735330323.1
2017-Feb-15 08:19N 05°16' W 004°02'73359693.9
2017-Feb-15 07:34N 31°15' E 121°46'1715152.4
2017-Feb-15 07:33N 31°15' E 122°05'735366680.3
2017-Feb-15 07:27N 05°16' W 004°02'73307433.5
2017-Feb-15 06:28N 31°19' E 121°41'215881.9
2017-Feb-15 06:27N 31°15' E 122°05'2427.1
2017-Feb-15 05:34N 31°21' E 121°38'241624.4
2017-Feb-15 05:33N 31°15' E 122°05'4821711.5
2017-Feb-15 05:16N 24°01' E 118°08'6 8.8
2017-Feb-15 04:33N 24°07' E 118°10'473850502.6
2017-Feb-15 04:33N 31°24' E 121°33'297464.3
2017-Feb-15 04:33N 31°15' E 122°05'468471.5
2017-Feb-15 03:34N 24°15' E 118°10'468562086.0
2017-Feb-15 03:33N 31°15' E 122°05'463463.3
2017-Feb-15 02:34N 24°22' E 118°07'463416667.0
2017-Feb-15 02:33N 31°15' E 122°05'4532410.2
2017-Feb-15 02:33N 31°35' E 121°18'4545.0
2017-Feb-15 01:33N 31°15' E 122°05'5035933.0
2017-Feb-15 01:33N 31°38' E 121°14'46512979.6
2017-Feb-15 01:31N 24°25' E 118°02'653349509.8
2017-Feb-15 01:23N 33°37' W 117°55'61087381.9
2017-Feb-15 00:34N 31°38' E 121°14'5044913.7
2017-Feb-15 00:33N 31°15' E 122°05'46311733.2
2017-Feb-15 00:31N 24°25' E 118°02'465483.4
2017-Feb-14 23:33N 31°38' E 121°14'5059884.9
2017-Feb-14 23:33N 31°15' E 122°05'46312433.8
2017-Feb-14 23:31N 24°25' E 118°02'7172403419.1
2017-Feb-14 23:30N 05°16' W 004°02'736442622.7
2017-Feb-14 23:20N 30°56' E 122°15'6787.1
2017-Feb-14 22:34N 31°38' E 121°14'6577437.2
2017-Feb-14 22:33N 31°02' E 122°16'1657631.9
2017-Feb-14 22:33N 31°15' E 122°05'46311570.5
2017-Feb-14 22:31N 24°25' E 118°02'717249747.2
2017-Feb-14 22:22N 05°16' W 004°02'73038963.3
2017-Feb-14 21:34N 31°38' E 121°14'5035933.0
2017-Feb-14 21:33N 31°15' E 122°05'46311651.0
2017-Feb-14 21:31N 24°25' E 118°02'71726454690.7
2017-Feb-14 21:31N 05°16' W 004°02'73027622.0
2017-Feb-14 20:34N 31°39' E 121°14'5060304.3
2017-Feb-14 20:33N 31°15' E 122°05'7353367666.5
2017-Feb-14 20:32N 05°16' W 004°02'7172368839.6
2017-Feb-14 20:31N 24°25' E 118°02'71727475.0
2017-Feb-14 19:34N 05°16' W 004°02'73536618003.1
2017-Feb-14 19:33N 31°15' E 122°05'46311571.2
2017-Feb-14 19:31N 24°25' E 118°02'463482.0
2017-Feb-14 18:33N 31°15' E 122°05'5914073.6
2017-Feb-14 18:33N 31°44' E 121°06'7295729460.8
2017-Feb-14 18:33N 05°16' W 004°02'7172286868.7
2017-Feb-14 18:31N 24°25' E 118°02'468488.1
2017-Feb-14 17:34N 31°47' E 120°58'5768067.9
2017-Feb-14 17:33N 31°11' E 121°50'131485.7
2017-Feb-14 17:33N 31°15' E 122°05'46315013.1
2017-Feb-14 17:31N 24°25' E 118°02'463481.9
2017-Feb-14 16:33N 31°15' E 122°05'104538.9
2017-Feb-14 16:33N 31°05' E 122°02'45312353.9
2017-Feb-14 16:31N 24°25' E 118°02'71721229410.5
2017-Feb-14 16:31N 05°16' W 004°02'72811747495.7
2017-Feb-14 16:31N 31°54' E 120°53'7376.8
2017-Feb-14 15:33N 31°15' E 122°05'813865.6
2017-Feb-14 15:32N 32°00' E 120°48'9524387.3
2017-Feb-14 15:32N 30°59' E 122°12'45231265.5
2017-Feb-14 15:31N 24°25' E 118°02'7170697670.3
2017-Feb-14 15:30N 05°17' W 004°01'73667751.1
2017-Feb-14 14:33N 30°50' E 122°17'2795860.7
2017-Feb-14 14:33N 31°15' E 122°05'46311902.7
2017-Feb-14 14:31N 24°25' E 118°02'45886781.6
2017-Feb-14 14:31N 31°24' E 121°31'7319675580.9
2017-Feb-14 14:30N 05°17' W 004°01'7263100184.6
2017-Feb-14 14:26N 31°60' E 120°36'72638338.1
2017-Feb-14 13:34N 05°17' W 004°01'72558706067.0
2017-Feb-14 13:33N 32°02' E 120°27'96173143.9
2017-Feb-14 13:33N 31°15' E 122°05'352602.8
2017-Feb-14 13:33N 30°42' E 122°20'4415831.6
2017-Feb-14 13:28N 24°25' E 118°02'4601611.5
2017-Feb-14 13:11N 31°28' E 121°26'5 7.3
2017-Feb-14 12:33N 31°31' E 121°22'4116285.5
2017-Feb-14 12:33N 31°15' E 122°05'46312436.6
2017-Feb-14 12:31N 24°25' E 118°02'717145208.2
2017-Feb-14 12:22N 05°17' W 004°01'73049126.6
2017-Feb-14 11:34N 31°36' E 121°16'4733957.2
2017-Feb-14 11:33N 31°15' E 122°05'46311735.5
2017-Feb-14 11:31N 24°25' E 118°02'7171437526.7
2017-Feb-14 11:30N 05°17' W 004°01'72987729.5
2017-Feb-14 10:33N 31°41' E 121°11'5410712.6
2017-Feb-14 10:33N 31°15' E 122°05'735213233771.4
2017-Feb-14 10:33N 05°17' W 004°01'7171211593.2
2017-Feb-14 10:31N 24°25' E 118°02'463477.8
2017-Feb-14 09:33N 31°15' E 122°05'46314615.9
2017-Feb-14 09:31N 24°25' E 118°02'7172697805.6
2017-Feb-14 09:30N 05°16' W 004°02'73537724.6
2017-Feb-14 08:33N 31°15' E 122°05'46312342.3
2017-Feb-14 08:31N 24°25' E 118°02'717270159.6
2017-Feb-14 08:25N 05°16' W 004°02'0 0.0
2017-Feb-14 07:34N 05°16' W 004°02'71725163660.7
2017-Feb-14 07:33N 24°25' E 118°02'4631666278.4
2017-Feb-14 07:33N 31°15' E 122°05'607934408.2
2017-Feb-14 07:23N 33°37' W 117°55'60797388.1
2017-Feb-14 06:33N 31°15' E 122°05'7353519061.9
2017-Feb-14 06:33N 05°16' W 004°02'6664106152.0
2017-Feb-14 06:29N 33°37' W 117°55'65383362358.6
2017-Feb-14 06:29N 24°24' E 117°57'466505.9
2017-Feb-14 05:33N 31°15' E 122°05'46616614.5
2017-Feb-14 05:32N 24°24' E 117°57'466479.4
2017-Feb-14 04:33N 31°15' E 122°05'46616452.0
2017-Feb-14 04:32N 24°24' E 117°57'466479.9
2017-Feb-14 03:33N 31°15' E 122°05'46616611.5
2017-Feb-14 03:32N 24°24' E 117°57'466479.5
2017-Feb-14 02:33N 31°15' E 122°05'46616777.8
2017-Feb-14 02:32N 24°24' E 117°57'466479.4
2017-Feb-14 01:33N 31°15' E 122°05'46616777.8
2017-Feb-14 01:32N 24°24' E 117°57'466479.4
2017-Feb-14 00:33N 31°15' E 122°05'46616777.8
2017-Feb-14 00:32N 24°24' E 117°57'4423894.1
2017-Feb-14 00:25N 30°39' E 122°21'737245214.0
2017-Feb-14 00:15N 05°16' W 004°02'735310567.8
2017-Feb-13 23:33N 31°15' E 122°05'3113946.8
2017-Feb-13 23:33N 30°45' E 122°16'7367530424.8
2017-Feb-13 23:32N 05°16' W 004°02'7167586406.4
2017-Feb-13 23:32N 24°24' E 117°57'451464.0
2017-Feb-13 22:33N 30°53' E 122°14'2383512.7
2017-Feb-13 22:33N 31°15' E 122°05'7353464423.5
2017-Feb-13 22:32N 05°16' W 004°02'7167560910.4
2017-Feb-13 22:32N 24°24' E 117°57'466479.8
2017-Feb-13 21:33N 31°15' E 122°05'162047.7
2017-Feb-13 21:33N 30°59' E 122°12'45522759.6
2017-Feb-13 21:32N 24°24' E 117°57'7167860062.9
2017-Feb-13 21:31N 05°16' W 004°02'73537633.3
2017-Feb-13 20:33N 31°15' E 122°05'7353456415.8
2017-Feb-13 20:32N 05°16' W 004°02'7355854074.7
2017-Feb-13 20:32N 31°04' E 122°05'456149321.4
2017-Feb-13 20:32N 24°24' E 117°57'466478.1
2017-Feb-13 19:33N 31°15' E 122°05'113587.6
2017-Feb-13 19:33N 31°06' E 121°57'45520489.7
2017-Feb-13 19:32N 24°24' E 117°57'653818828.9
2017-Feb-13 19:11N 33°37' W 117°55'60799726.0
2017-Feb-13 18:33N 31°15' E 122°05'46616614.7
2017-Feb-13 18:32N 24°24' E 117°57'4726934.0
2017-Feb-13 18:28N 31°46' E 121°03'7292116156.2
2017-Feb-13 18:24N 05°16' W 004°02'73378728.7
2017-Feb-13 17:33N 31°13' E 121°48'1555060.4
2017-Feb-13 17:33N 31°15' E 122°05'502499.1
2017-Feb-13 17:32N 31°39' E 121°14'46958171.4
2017-Feb-13 17:32N 24°24' E 117°57'7167296566.0
2017-Feb-13 17:30N 05°16' W 004°02'73347738.3
2017-Feb-13 16:33N 31°16' E 121°45'1831598.3
2017-Feb-13 16:33N 31°15' E 122°05'3913994.0
2017-Feb-13 16:33N 31°31' E 121°24'46518584.7
2017-Feb-13 16:32N 24°24' E 117°57'7166255413.8
2017-Feb-13 16:30N 05°17' W 004°01'73217754.1
2017-Feb-13 15:33N 31°24' E 121°33'2911558.8
2017-Feb-13 15:33N 31°15' E 122°05'7352945259.4
2017-Feb-13 15:33N 05°17' W 004°01'7166422902.0
2017-Feb-13 15:32N 24°24' E 117°57'8912794.0
2017-Feb-13 15:13N 38°51' E 121°57'4483558.4
2017-Feb-13 15:05N 31°24' E 121°31'447843.8
2017-Feb-13 14:33N 38°51' E 121°51'45678171.2
2017-Feb-13 14:33N 31°15' E 122°05'73521058690.0
2017-Feb-13 14:33N 05°17' W 004°01'7166548876.5
2017-Feb-13 14:32N 24°24' E 117°57'4624724.1
2017-Feb-13 14:26N 31°22' E 121°39'2326.5
2017-Feb-13 13:33N 31°15' E 122°05'46620461.8
2017-Feb-13 13:32N 24°24' E 117°57'7166260577.6
2017-Feb-13 13:30N 05°17' W 004°01'7327274762.0
2017-Feb-13 13:29N 31°22' E 121°39'4548552.4
2017-Feb-13 13:25N 38°55' E 121°46'461533.3
2017-Feb-13 12:33N 31°15' E 122°05'466209725.8
2017-Feb-13 12:33N 39°01' E 121°45'7276873156.9
2017-Feb-13 12:33N 05°17' W 004°01'7166416083.8
2017-Feb-13 12:32N 24°24' E 117°57'6538140935.0
2017-Feb-13 12:29N 33°37' W 117°55'6097399054.1
2017-Feb-13 12:28N 31°22' E 121°39'2325.6
2017-Feb-13 11:33N 31°15' E 122°05'242740.0
2017-Feb-13 11:33N 31°21' E 121°39'460413969.8
2017-Feb-13 11:33N 39°01' E 121°45'89846849.1
2017-Feb-13 11:32N 24°24' E 117°57'7166310809.8
2017-Feb-13 11:30N 05°17' W 004°01'73527754.8
2017-Feb-13 10:33N 31°15' E 122°05'241846.6
2017-Feb-13 10:33N 31°21' E 121°39'46129090.5
2017-Feb-13 10:32N 24°24' E 117°57'7166560808.8
2017-Feb-13 10:31N 05°17' W 004°01'73527667.2
2017-Feb-13 09:33N 31°15' E 122°05'46616290.0
2017-Feb-13 09:32N 24°24' E 117°57'7167164341.1
2017-Feb-13 09:29N 05°16' W 004°02'732851025.2
2017-Feb-13 09:21N 31°21' E 121°39'4603118.5
2017-Feb-13 09:12N 39°01' E 121°45'466732.0
2017-Feb-13 08:33N 31°15' E 122°05'466209725.8
2017-Feb-13 08:33N 39°01' E 121°45'7278557443.6
2017-Feb-13 08:33N 05°16' W 004°02'73282398221.1
2017-Feb-13 08:32N 31°21' E 121°39'4617748.9
2017-Feb-13 08:29N 24°24' E 117°57'466505.4
2017-Feb-13 07:33N 31°15' E 122°05'466209723.1
2017-Feb-13 07:33N 39°01' E 121°45'45816645.6
2017-Feb-13 07:32N 31°23' E 121°35'4619599.2
2017-Feb-13 07:29N 24°24' E 117°57'716720774.2
2017-Feb-13 07:08N 05°16' W 004°02'735312739.2
2017-Feb-13 06:33N 31°15' E 122°05'352541.8
2017-Feb-13 06:33N 31°27' E 121°28'453181361.7
2017-Feb-13 06:32N 39°01' E 121°45'89871838.0
2017-Feb-13 06:32N 24°24' E 117°57'716755605.9
2017-Feb-13 06:24N 05°16' W 004°02'73538702.2
2017-Feb-13 05:33N 31°15' E 122°05'7353630285.7
2017-Feb-13 05:33N 05°16' W 004°02'7167496175.7
2017-Feb-13 05:32N 24°24' E 117°57'464185627.0
2017-Feb-13 05:32N 31°31' E 121°23'4502958.3
2017-Feb-13 05:22N 39°01' E 121°45'5 5.8
2017-Feb-13 04:33N 38°56' E 121°47'4611661070.0
2017-Feb-13 04:33N 31°15' E 122°05'3912898.9
2017-Feb-13 04:33N 31°31' E 121°23'46418358.3
2017-Feb-13 04:32N 24°24' E 117°57'466479.6
2017-Feb-13 03:33N 31°15' E 122°05'454816728.5
2017-Feb-13 03:33N 38°48' E 121°46'43868565.7
2017-Feb-13 03:33N 31°31' E 121°23'46422881.8
2017-Feb-13 03:32N 24°24' E 117°57'466479.2
2017-Feb-13 02:33N 31°15' E 122°05'447536273.8
2017-Feb-13 02:33N 38°41' E 121°43'43145638.7
2017-Feb-13 02:33N 31°31' E 121°23'46425697.5
2017-Feb-13 02:32N 24°24' E 117°57'456469.3
2017-Feb-13 01:33N 31°06' E 121°59'454326929.7
2017-Feb-13 01:33N 38°40' E 121°42'445178154.2
2017-Feb-13 01:33N 31°15' E 122°05'393222.8
2017-Feb-13 01:33N 31°31' E 121°23'4647327.3
2017-Feb-13 01:29N 24°24' E 117°57'467507.7
2017-Feb-13 00:33N 31°37' E 121°16'4885841.7
2017-Feb-13 00:33N 31°15' E 122°05'163112.3
2017-Feb-13 00:33N 30°60' E 122°10'45922346.2
2017-Feb-13 00:32N 38°38' E 121°41'87616592.8
2017-Feb-13 00:29N 24°24' E 117°57'466505.6
2017-Feb-12 23:33N 31°15' E 122°05'241293.4
2017-Feb-12 23:32N 30°52' E 122°14'45046251.6
2017-Feb-12 23:32N 24°24' E 117°57'653845612.2
2017-Feb-12 23:23N 33°37' W 117°55'6664179032.7
2017-Feb-12 23:21N 05°16' W 004°02'73669323.5
2017-Feb-12 22:34N 30°44' E 122°14'327617.1
2017-Feb-12 22:33N 31°15' E 122°05'7353588266.9
2017-Feb-12 22:33N 05°16' W 004°02'7167548973.7
2017-Feb-12 22:32N 24°24' E 117°57'466479.6
2017-Feb-12 21:33N 31°15' E 122°05'3923369.5
2017-Feb-12 21:33N 30°36' E 122°13'73651205228.0
2017-Feb-12 21:33N 05°16' W 004°02'7167368596.4
2017-Feb-12 21:32N 24°24' E 117°57'653826836.9
2017-Feb-12 21:17N 33°37' W 117°55'60798339.8
2017-Feb-12 20:33N 31°15' E 122°05'469719.2
2017-Feb-12 20:33N 30°29' E 122°06'42718290.2
2017-Feb-12 20:32N 24°24' E 117°57'7167353448.6
2017-Feb-12 20:31N 05°16' W 004°02'73537726.8
2017-Feb-12 19:33N 31°15' E 122°05'7353270122.5
2017-Feb-12 19:32N 05°16' W 004°02'71676450438.5
2017-Feb-12 19:32N 24°24' E 117°57'8305978.2
2017-Feb-12 19:23N 37°54' E 121°31'400480.1
2017-Feb-12 18:33N 31°15' E 122°05'3931413807.1
2017-Feb-12 18:33N 37°46' E 121°29'7272331386.6
2017-Feb-12 18:32N 05°16' W 004°02'7167129007.6
2017-Feb-12 18:29N 24°24' E 117°57'814881.9
2017-Feb-12 17:33N 37°37' E 121°27'384197456.1
2017-Feb-12 17:33N 31°15' E 122°05'46619068.1
2017-Feb-12 17:32N 24°24' E 117°57'71678600403.4
2017-Feb-12 17:32N 05°16' W 004°02'457168854.9
2017-Feb-12 17:28N 25°43' W 080°11'1067311785.6
2017-Feb-12 16:33N 31°15' E 122°05'382344190.8
2017-Feb-12 16:33N 37°36' E 121°25'81231085.8
2017-Feb-12 16:32N 24°24' E 117°57'466479.0
2017-Feb-12 15:33N 31°15' E 122°05'382688370.9
2017-Feb-12 15:33N 37°36' E 121°25'81229515.2
2017-Feb-12 15:32N 24°24' E 117°57'1075740719.8
2017-Feb-12 15:16N 25°56' W 080°08'456958537.9
2017-Feb-12 15:11N 05°16' W 004°02'735311676.9
2017-Feb-12 14:33N 31°15' E 122°05'382125160.3
2017-Feb-12 14:33N 37°36' E 121°25'161134.9
2017-Feb-12 14:32N 37°45' E 121°08'72521631669.1
2017-Feb-12 14:32N 05°17' W 004°01'71661121612.2
2017-Feb-12 14:32N 24°24' E 117°57'1075828433.9
2017-Feb-12 14:09N 25°56' W 080°09'1065917956.5
2017-Feb-12 13:33N 31°15' E 122°05'3821376741.7
2017-Feb-12 13:33N 37°36' E 121°25'72681308240.0
2017-Feb-12 13:33N 05°17' W 004°01'7166335027.4
2017-Feb-12 13:32N 24°24' E 117°57'1075883283.9
2017-Feb-12 13:24N 25°56' W 080°09'1065912643.5
2017-Feb-12 12:33N 31°15' E 122°05'382344190.8
2017-Feb-12 12:33N 37°36' E 121°25'7268792872.7
2017-Feb-12 12:33N 05°17' W 004°01'7166396878.5
2017-Feb-12 12:32N 24°24' E 117°57'1075832819.5
2017-Feb-12 12:12N 25°56' W 080°09'1065916547.2
2017-Feb-12 11:33N 31°15' E 122°05'382688381.6
2017-Feb-12 11:33N 37°36' E 121°25'81229815.5
2017-Feb-12 11:32N 24°24' E 117°57'716634813.9
2017-Feb-12 11:19N 05°17' W 004°01'457062797.5
2017-Feb-12 11:15N 25°56' W 080°09'1065915367.6
2017-Feb-12 10:33N 31°15' E 122°05'382688381.6
2017-Feb-12 10:33N 37°36' E 121°25'7268115263.4
2017-Feb-12 10:30N 05°17' W 004°01'7166515942.1
2017-Feb-12 10:29N 24°24' E 117°57'1075847113.2
2017-Feb-12 10:15N 25°56' W 080°09'1065915361.5
2017-Feb-12 09:33N 31°15' E 122°05'382458913.9
2017-Feb-12 09:33N 37°36' E 121°25'81229815.3
2017-Feb-12 09:32N 24°24' E 117°57'7166429951.1
2017-Feb-12 09:31N 05°17' W 004°01'729319754.1
2017-Feb-12 09:09N 31°45' E 121°05'60101.7
2017-Feb-12 08:33N 31°15' E 122°05'382105903.2
2017-Feb-12 08:33N 37°36' E 121°25'354319025.1
2017-Feb-12 08:33N 31°41' E 121°10'47020130.6
2017-Feb-12 08:32N 24°24' E 117°57'7167124046.4
2017-Feb-12 08:28N 05°16' W 004°02'725332927.1
2017-Feb-12 08:15N 37°43' E 121°07'391563.8
2017-Feb-12 07:33N 31°15' E 122°05'3821376698.7
2017-Feb-12 07:33N 37°36' E 121°25'36176481.9
2017-Feb-12 07:33N 31°35' E 121°19'46620468.1
2017-Feb-12 07:32N 24°24' E 117°57'8172939901.9
2017-Feb-12 07:32N 37°44' E 121°10'392402.9
2017-Feb-12 06:33N 31°15' E 122°05'382688360.1
2017-Feb-12 06:33N 37°36' E 121°25'113222.8
2017-Feb-12 06:33N 37°42' E 121°14'102917409383.2
2017-Feb-12 06:33N 25°56' W 080°09'10615419946.9
2017-Feb-12 06:32N 31°30' E 121°30'4664795.2
2017-Feb-12 06:26N 24°24' E 117°57'812930.0
2017-Feb-12 05:33N 37°36' E 121°25'368330850.9
2017-Feb-12 05:33N 31°28' E 121°42'370190058.4
2017-Feb-12 05:33N 37°38' E 121°24'384197678.0
2017-Feb-12 05:33N 31°15' E 122°05'46620976.1
2017-Feb-12 05:32N 24°24' E 117°57'716725171.8
2017-Feb-12 05:15N 05°16' W 004°02'726910565.2
2017-Feb-12 04:33N 37°36' E 121°25'38276484.5
2017-Feb-12 04:33N 31°15' E 122°05'3811370144.2
2017-Feb-12 04:33N 37°34' E 121°25'81038363.4
2017-Feb-12 04:32N 24°24' E 117°57'7167191119.5
2017-Feb-12 04:30N 05°16' W 004°02'73537862.2
2017-Feb-12 03:33N 31°15' E 122°05'382688349.3
2017-Feb-12 03:33N 37°36' E 121°25'2328.4
2017-Feb-12 03:33N 37°34' E 121°25'81036906.8
2017-Feb-12 03:32N 24°24' E 117°57'1075760986.9
2017-Feb-12 03:21N 25°56' W 080°09'1066940861.3
2017-Feb-12 03:06N 31°03' E 122°06'1121.4
2017-Feb-12 02:33N 31°15' E 122°05'382688360.1
2017-Feb-12 02:33N 37°36' E 121°25'21102.0
2017-Feb-12 02:33N 37°34' E 121°25'39113149.7
2017-Feb-12 02:32N 31°04' E 122°03'4569891.3
2017-Feb-12 02:29N 24°24' E 117°57'455494.6
2017-Feb-12 01:34N 31°06' E 121°59'391175907.2
2017-Feb-12 01:33N 37°36' E 121°25'382172090.0
2017-Feb-12 01:33N 31°15' E 122°05'381124834.4
2017-Feb-12 01:33N 37°35' E 121°25'81111401.1
2017-Feb-12 01:29N 24°24' E 117°57'10758139306.8
2017-Feb-12 01:24N 25°56' W 080°09'1065612618.7
2017-Feb-12 00:33N 31°08' E 121°55'389233210.5
2017-Feb-12 00:33N 37°36' E 121°25'38249152.2
2017-Feb-12 00:33N 31°15' E 122°05'46624315.6
2017-Feb-12 00:32N 24°24' E 117°57'4631891.4
2017-Feb-12 00:17N 31°30' E 121°24'2838.9
2017-Feb-11 23:34N 31°12' E 121°49'1410111.8
2017-Feb-11 23:33N 31°15' E 122°05'382344176.1
2017-Feb-11 23:33N 37°36' E 121°25'032.1
2017-Feb-11 23:33N 37°36' E 121°25'363326372.5
2017-Feb-11 23:33N 31°33' E 121°20'4656917.8
2017-Feb-11 23:29N 24°24' E 117°57'811879.6
2017-Feb-11 22:33N 37°35' E 121°25'382687008.8
2017-Feb-11 22:33N 31°15' E 122°05'382105900.3
2017-Feb-11 22:33N 37°36' E 121°25'81233585.1
2017-Feb-11 22:32N 24°24' E 117°57'1075838921.9
2017-Feb-11 22:15N 25°56' W 080°09'4570161294.1
2017-Feb-11 22:13N 05°16' W 004°02'735311016.2
2017-Feb-11 21:33N 31°15' E 122°05'382688363.0
2017-Feb-11 21:33N 37°36' E 121°25'51256.5
2017-Feb-11 21:33N 37°40' E 121°22'81534529.1
2017-Feb-11 21:32N 24°24' E 117°57'716725221.7
2017-Feb-11 21:15N 05°16' W 004°02'457023878.2
2017-Feb-11 21:03N 25°56' W 080°09'1065921461.4
2017-Feb-11 20:33N 31°15' E 122°05'382458901.5
2017-Feb-11 20:33N 37°36' E 121°25'12615.6
2017-Feb-11 20:32N 37°45' E 121°14'819140408.5
2017-Feb-11 20:32N 24°24' E 117°57'46813277.4
2017-Feb-11 20:30N 31°39' E 121°13'10593254230.3
2017-Feb-11 20:27N 25°56' W 080°09'457082673.6
2017-Feb-11 20:24N 05°16' W 004°02'72698639.9
2017-Feb-11 19:33N 37°36' E 121°25'382172090.8
2017-Feb-11 19:33N 31°15' E 122°05'512198.3
2017-Feb-11 19:32N 31°39' E 121°13'468421557.1
2017-Feb-11 19:32N 24°24' E 117°57'82375963.8
2017-Feb-11 19:31N 37°50' E 121°08'7252100419.0
2017-Feb-11 19:27N 05°16' W 004°02'73538267.3
2017-Feb-11 18:33N 31°15' E 122°05'382458908.7
2017-Feb-11 18:33N 37°36' E 121°25'7269109498.6
2017-Feb-11 18:29N 05°16' W 004°02'7167697339.0
2017-Feb-11 18:29N 24°24' E 117°57'812879.1
2017-Feb-11 17:33N 37°36' E 121°25'38249168.0
2017-Feb-11 17:33N 31°15' E 122°05'7353193227.2
2017-Feb-11 17:31N 05°16' W 004°02'7167230370.3
2017-Feb-11 17:29N 24°24' E 117°57'4693359.8
2017-Feb-11 17:20N 31°39' E 121°13'47176.4
2017-Feb-11 17:05N 32°03' E 120°25'98188.5
2017-Feb-11 16:33N 31°15' E 122°05'382688352.3
2017-Feb-11 16:33N 37°36' E 121°25'7270363476.3
2017-Feb-11 16:32N 05°16' W 004°02'71671032050.3
2017-Feb-11 16:32N 24°24' E 117°57'4701443.7
2017-Feb-11 16:12N 31°29' E 121°45'2234.6
2017-Feb-11 15:33N 31°15' E 122°05'3821376683.0
2017-Feb-11 15:33N 37°36' E 121°25'37066627.3
2017-Feb-11 15:33N 31°26' E 121°45'4686527.7
2017-Feb-11 15:29N 24°24' E 117°57'462500.7
2017-Feb-11 14:33N 31°18' E 121°47'3781360255.3
2017-Feb-11 14:33N 37°36' E 121°25'81230758.6
2017-Feb-11 14:32N 24°24' E 117°57'466479.0
2017-Feb-11 13:33N 31°15' E 122°05'382114725.4
2017-Feb-11 13:33N 37°36' E 121°25'382383.7
2017-Feb-11 12:33N 31°15' E 122°05'382688341.5
2017-Feb-11 12:33N 37°36' E 121°25'38769652.7
2017-Feb-11 12:33N 31°09' E 121°53'456968.2
2017-Feb-11 12:05N 24°24' E 117°57'8121552.6
2017-Feb-11 11:33N 37°36' E 121°25'39010554.1
2017-Feb-11 11:31N 31°07' E 121°58'73471150042.9
2017-Feb-11 11:31N 05°16' W 004°02'716786005.3
2017-Feb-11 11:26N 24°24' E 117°57'4745075.8
2017-Feb-11 11:20N 31°59' E 120°27'98125.7
2017-Feb-11 10:34N 31°04' E 122°02'393201956.6
2017-Feb-11 10:33N 37°36' E 121°25'382125153.0
2017-Feb-11 10:33N 31°15' E 122°05'7353372845.6
2017-Feb-11 10:32N 05°16' W 004°02'73537526.9
2017-Feb-11 09:33N 31°15' E 122°05'3811370949.7
2017-Feb-11 09:33N 37°34' E 121°25'7270493823.0
2017-Feb-11 09:33N 05°16' W 004°02'725649011.2
2017-Feb-11 09:24N 31°59' E 120°26'95113.5
2017-Feb-11 08:33N 31°15' E 122°05'381137167.4
2017-Feb-11 08:33N 37°34' E 121°25'72704362277.4
2017-Feb-11 08:33N 05°16' W 004°02'73537390.3
2017-Feb-11 07:33N 31°15' E 122°05'388697995.6
2017-Feb-11 07:33N 37°41' E 121°29'81437112.1
2017-Feb-11 07:32N 24°26' E 118°04'7173573868.6
2017-Feb-11 07:31N 05°16' W 004°02'716777019.5
2017-Feb-11 07:26N 24°24' E 117°57'4746386.4
2017-Feb-11 07:21N 31°59' E 120°26'72569098.9
2017-Feb-11 06:33N 05°16' W 004°02'73538824010.5
2017-Feb-11 06:33N 31°15' E 122°05'39545884.7
2017-Feb-11 06:33N 37°49' E 121°32'8264890.1
2017-Feb-11 06:23N 24°24' E 117°57'71678731.5
2017-Feb-11 05:34N 05°16' W 004°02'73531654503.0
2017-Feb-11 05:33N 31°15' E 122°05'46619287.6
2017-Feb-11 05:32N 24°24' E 117°57'466476.4
2017-Feb-11 04:33N 31°15' E 122°05'46621793.6
2017-Feb-11 04:32N 24°24' E 117°57'71674300192.9
2017-Feb-11 04:32N 05°16' W 004°02'73537569.9
2017-Feb-11 03:33N 31°15' E 122°05'4666058.2
2017-Feb-11 03:29N 24°24' E 117°57'466503.3
2017-Feb-11 02:33N 31°15' E 122°05'46618854.7
2017-Feb-11 02:32N 24°24' E 117°57'4741633.8
2017-Feb-11 02:14N 31°59' E 120°27'95138.7
2017-Feb-11 01:33N 31°15' E 122°05'4663728.6
2017-Feb-11 01:26N 24°24' E 117°57'466534.3
2017-Feb-11 00:33N 31°15' E 122°05'46617120.9
2017-Feb-11 00:32N 24°24' E 117°57'12119.2
2017-Feb-11 00:26N 24°25' E 118°09'460525.0
2017-Feb-10 23:33N 31°15' E 122°05'44673059.7
2017-Feb-10 23:33N 38°41' E 121°51'7285771368.6
2017-Feb-10 23:32N 05°16' W 004°02'7167645039.5
2017-Feb-10 23:32N 24°24' E 117°57'466478.6
2017-Feb-10 22:33N 31°15' E 122°05'7353383652.7
2017-Feb-10 22:32N 05°16' W 004°02'7167921484.7
2017-Feb-10 22:32N 24°24' E 117°57'88817375.0
2017-Feb-10 22:29N 38°49' E 121°53'454492.8
2017-Feb-10 21:33N 31°15' E 122°05'46617297.2
2017-Feb-10 21:32N 24°24' E 117°57'7167860051.7
2017-Feb-10 21:31N 05°16' W 004°02'725720361.4
2017-Feb-10 21:10N 31°58' E 120°27'95155.8
2017-Feb-10 20:33N 31°15' E 122°05'7353509077.2
2017-Feb-10 20:33N 05°16' W 004°02'7167560903.3
2017-Feb-10 20:32N 24°24' E 117°57'4737346.1
2017-Feb-10 20:28N 31°58' E 120°27'95104.3
2017-Feb-10 19:33N 31°15' E 122°05'7353401091.1
2017-Feb-10 19:32N 05°16' W 004°02'7167832308.1
2017-Feb-10 19:32N 24°24' E 117°57'47350126.5
2017-Feb-10 19:31N 31°58' E 120°27'9598.2
2017-Feb-10 18:33N 31°15' E 122°05'9510047.6
2017-Feb-10 18:33N 31°59' E 120°27'72561004739.5
2017-Feb-10 18:32N 05°16' W 004°02'7167832308.4
2017-Feb-10 18:32N 24°24' E 117°57'466479.3
2017-Feb-10 17:33N 31°15' E 122°05'46617122.3
2017-Feb-10 17:32N 24°24' E 117°57'4748275.0
2017-Feb-10 17:28N 31°59' E 120°26'7256140443.1
2017-Feb-10 17:25N 05°16' W 004°02'73538511.9
2017-Feb-10 16:33N 31°15' E 122°05'46616950.6
2017-Feb-10 16:32N 24°24' E 117°57'7167138717.1
2017-Feb-10 16:29N 05°16' W 004°02'73537987.9
2017-Feb-10 15:33N 31°15' E 122°05'971328.2
2017-Feb-10 15:29N 31°58' E 120°24'22293.0
2017-Feb-10 15:29N 31°59' E 120°26'474100279.5
2017-Feb-10 15:29N 24°24' E 117°57'7167860037.9
2017-Feb-10 15:28N 05°16' W 004°02'73538048.6
2017-Feb-10 14:33N 31°15' E 122°05'953981.9
2017-Feb-10 14:32N 31°59' E 120°26'474142054.0
2017-Feb-10 14:32N 24°24' E 117°57'466479.2
2017-Feb-10 13:33N 31°15' E 122°05'9631306.8
2017-Feb-10 13:33N 31°58' E 120°25'47319790.3
2017-Feb-10 13:32N 24°24' E 117°57'46424538.4
2017-Feb-10 13:31N 31°30' E 121°23'56958.9
2017-Feb-10 13:27N 31°59' E 120°26'95106.3
2017-Feb-10 12:33N 31°15' E 122°05'96344432.6
2017-Feb-10 12:33N 31°58' E 120°25'536768.5
2017-Feb-10 12:33N 31°33' E 121°20'46523911.8
2017-Feb-10 12:32N 24°24' E 117°57'47316079.5
2017-Feb-10 12:30N 31°59' E 120°26'1 1.1
2017-Feb-10 11:33N 31°58' E 120°25'96344403.7
2017-Feb-10 11:33N 31°15' E 122°05'46617118.5
2017-Feb-10 11:32N 24°24' E 117°57'46820790.0
2017-Feb-10 11:30N 31°38' E 121°15'471188.6
2017-Feb-10 11:28N 31°59' E 120°26'1 1.1
2017-Feb-10 10:33N 31°58' E 120°25'47317189.1
2017-Feb-10 10:32N 24°24' E 117°57'47363124.9
2017-Feb-10 10:31N 31°59' E 120°26'725622212.9
2017-Feb-10 10:12N 05°16' W 004°02'735311519.6
2017-Feb-10 09:33N 31°15' E 122°05'96344393.8
2017-Feb-10 09:33N 31°58' E 120°25'47317543.5
2017-Feb-10 09:32N 24°24' E 117°57'47312813.9
2017-Feb-10 09:30N 31°59' E 120°26'725634599.4
2017-Feb-10 09:17N 05°16' W 004°02'735310134.8
2017-Feb-10 08:33N 31°15' E 122°05'96172196.9
2017-Feb-10 08:33N 31°58' E 120°25'47317017.2
2017-Feb-10 08:32N 24°24' E 117°57'47343698.2
2017-Feb-10 08:31N 31°59' E 120°26'7256214118.7
2017-Feb-10 08:29N 05°16' W 004°02'73537928.2
2017-Feb-10 07:33N 31°15' E 122°05'73532206000.2
2017-Feb-10 07:33N 05°16' W 004°02'7255442698.2
2017-Feb-10 07:32N 31°58' E 120°25'47363026.5
2017-Feb-10 07:32N 24°24' E 117°57'4731598.6
2017-Feb-10 07:14N 31°59' E 120°26'95140.0
2017-Feb-10 06:33N 31°15' E 122°05'46619063.8
2017-Feb-10 06:32N 24°24' E 117°57'71671720132.1
2017-Feb-10 06:32N 05°16' W 004°02'725642753.2
2017-Feb-10 06:21N 31°59' E 120°26'95119.1
2017-Feb-10 05:33N 31°15' E 122°05'9634440.4
2017-Feb-10 05:33N 31°58' E 120°25'47319787.6
2017-Feb-10 05:32N 24°24' E 117°57'47318936.1
2017-Feb-10 05:30N 31°59' E 120°26'1 1.0
2017-Feb-10 04:33N 31°58' E 120°25'47317366.2
2017-Feb-10 04:32N 24°24' E 117°57'4735857.5
2017-Feb-10 04:27N 31°59' E 120°26'72561741492.8
2017-Feb-10 04:27N 05°16' W 004°02'72558174.7
2017-Feb-10 03:33N 31°58' E 120°25'9634535.9
2017-Feb-10 03:33N 31°15' E 122°05'46618643.4
2017-Feb-10 03:32N 24°24' E 117°57'4736791.2
2017-Feb-10 03:28N 31°59' E 120°26'95105.4
2017-Feb-10 02:33N 31°15' E 122°05'46617121.5
2017-Feb-10 02:32N 24°24' E 117°57'47332722.1
2017-Feb-10 02:31N 31°58' E 120°25'116.1
2017-Feb-10 02:26N 31°59' E 120°26'95108.3
2017-Feb-10 01:33N 31°15' E 122°05'  
Track history (hours):
 
Tides and Currents Weather Stations Pressure Air Temp Water Temp Dewpoint Dewpoint Depression Visibility Wind Speed Wind Dir Waves Ship Positions

Graceful Lady

Last reported at 2017-Feb-20 01:33 UTC. Time now 2017-Feb-20 01:39 UTC.
Position N 31°15' E 122°05'.

Length 6 m.

Type: Pollution control. MMSI: 316014038.

Date/timePositionNaut miles runAvg speedWind from/ knotsBaromVisibWave heightAir tempDewpointWater temp
2017-Feb-20 01:33N 31°15' E 122°05'39313.3
2017-Feb-20 01:26N 31°30' E 121°23'3944.6
2017-Feb-20 00:33N 31°15' E 122°05'39633.6
2017-Feb-20 00:30N 31°30' E 121°23'3941.6
2017-Feb-19 23:33N 31°15' E 122°05'396697.9
2017-Feb-19 23:33N 31°30' E 121°23'3939.1
2017-Feb-19 22:33N 31°15' E 122°05'396697.9
2017-Feb-19 22:33N 31°30' E 121°23'0 0.0
2017-Feb-19 21:33N 31°30' E 121°23'0 0.0
2017-Feb-19 20:33N 31°30' E 121°23'398791.0
2017-Feb-19 20:33N 31°15' E 122°05'3939.1
2017-Feb-19 19:33N 31°30' E 121°23'392268.8
2017-Feb-19 19:32N 31°15' E 122°05'0 0.0
2017-Feb-19 18:33N 31°15' E 122°05'39445.1
2017-Feb-19 18:28N 31°30' E 121°23'3942.7
2017-Feb-19 17:33N 31°15' E 122°05'0 0.0
2017-Feb-19 16:33N 31°15' E 122°05'413403.5
2017-Feb-19 16:32N 31°31' E 121°22'731152745.7
2017-Feb-19 16:24N 05°18' W 004°03'732326846.2
2017-Feb-19 16:08N 31°15' E 121°33'2849.4
2017-Feb-19 15:33N 31°15' E 122°05'735267864.9
2017-Feb-19 15:27N 05°17' W 004°01'73528253.0
2017-Feb-19 14:33N 31°15' E 122°05'7352139301.6
2017-Feb-19 14:30N 05°17' W 004°01'73527714.2
2017-Feb-19 13:33N 31°15' E 122°05'73525293457.6
2017-Feb-19 13:33N 05°17' W 004°01'7174153727.2
2017-Feb-19 13:30N 24°07' E 118°03'478505.1
2017-Feb-19 12:33N 31°15' E 122°05'46926816.7
2017-Feb-19 12:32N 24°14' E 118°10'717933653.6
2017-Feb-19 12:20N 05°17' W 004°01'71769353.3
2017-Feb-19 11:34N 24°23' E 118°07'46397958.3
2017-Feb-19 11:33N 31°15' E 122°05'465467.6
2017-Feb-19 10:33N 24°24' E 117°58'465279288.3
2017-Feb-19 10:33N 31°15' E 122°05'466466.9
2017-Feb-19 09:34N 24°24' E 117°57'46634950.8
2017-Feb-19 09:33N 31°15' E 122°05'0 0.0
2017-Feb-19 08:33N 31°15' E 122°05'466559206.2
2017-Feb-19 08:33N 24°24' E 117°57'4772898.1
2017-Feb-19 08:23N 32°02' E 120°27'477572.1
2017-Feb-19 07:33N 24°24' E 117°57'46664523.8
2017-Feb-19 07:33N 31°15' E 122°05'466469.4
2017-Feb-19 06:33N 24°24' E 117°57'46635694.0
2017-Feb-19 06:33N 31°15' E 122°05'0 0.0
2017-Feb-19 05:33N 31°15' E 122°05'466559225.4
2017-Feb-19 05:33N 24°24' E 117°57'716734310.7
2017-Feb-19 05:21N 05°16' W 004°02'71679091.5
2017-Feb-19 04:33N 24°24' E 117°57'46664525.3
2017-Feb-19 04:33N 31°15' E 122°05'30356.5
2017-Feb-19 04:28N 31°15' E 121°30'452497.8
2017-Feb-19 03:33N 24°24' E 117°57'466335539.1
2017-Feb-19 03:33N 31°15' E 122°05'466465.5
2017-Feb-19 02:33N 24°24' E 117°57'466335539.1
2017-Feb-19 02:33N 31°15' E 122°05'7353912826.3
2017-Feb-19 02:33N 05°16' W 004°02'730916674.9
2017-Feb-19 02:06N 31°31' E 121°20'463843.1
2017-Feb-19 01:33N 24°24' E 117°57'463834042.2
2017-Feb-19 01:33N 31°29' E 121°25'3711174.3
2017-Feb-19 01:33N 31°15' E 122°05'7353300818.4
2017-Feb-19 01:32N 05°16' W 004°02'71677380.3
2017-Feb-19 00:34N 24°24' E 117°57'46698686.9
2017-Feb-19 00:33N 31°15' E 122°05'7353113128.2
2017-Feb-19 00:29N 05°16' W 004°02'73327884.4
2017-Feb-18 23:34N 31°18' E 121°43'198618.0
2017-Feb-18 23:33N 31°15' E 122°05'4663874.5
2017-Feb-18 23:26N 24°24' E 117°57'7167293199.4
2017-Feb-18 23:25N 05°16' W 004°02'73418605.0
2017-Feb-18 22:34N 31°11' E 121°51'135141.9
2017-Feb-18 22:33N 31°15' E 122°05'73536618001.7
2017-Feb-18 22:33N 05°16' W 004°02'7278247171.7
2017-Feb-18 22:32N 31°58' E 120°50'4794739.5
2017-Feb-18 22:25N 24°24' E 117°57'2 2.5
2017-Feb-18 21:34N 24°24' E 117°59'465209093.6
2017-Feb-18 21:33N 31°15' E 122°05'101139.6
2017-Feb-18 21:33N 31°05' E 122°01'735061823.2
2017-Feb-18 21:26N 05°16' W 004°02'727824670.6
2017-Feb-18 21:08N 31°58' E 120°50'478830.0
2017-Feb-18 20:33N 24°25' E 117°60'464417738.9
2017-Feb-18 20:33N 31°15' E 122°05'735331971.0
2017-Feb-18 20:20N 05°16' W 004°02'71749337.5
2017-Feb-18 19:34N 24°25' E 118°04'462207976.4
2017-Feb-18 19:33N 31°15' E 122°05'78508.0
2017-Feb-18 19:24N 31°58' E 120°50'477564.3
2017-Feb-18 18:33N 24°23' E 118°06'463118956.9
2017-Feb-18 18:33N 31°15' E 122°05'735323891.7
2017-Feb-18 18:15N 05°16' W 004°02'728048179.0
2017-Feb-18 18:06N 31°56' E 120°52'476887.5
2017-Feb-18 17:34N 24°23' E 118°06'463237908.2
2017-Feb-18 17:33N 31°15' E 122°05'73535294401.0
2017-Feb-18 17:33N 05°16' W 004°02'728262716.8
2017-Feb-18 17:26N 31°53' E 120°54'473536.7
2017-Feb-18 16:33N 24°23' E 118°06'463333083.1
2017-Feb-18 16:33N 31°15' E 122°05'682649.2
2017-Feb-18 16:32N 31°48' E 120°56'728575797.0
2017-Feb-18 16:26N 05°16' W 004°02'72898320.3
2017-Feb-18 15:34N 31°45' E 121°01'468842644.0
2017-Feb-18 15:33N 24°23' E 118°06'463277612.8
2017-Feb-18 15:33N 31°15' E 122°05'7352420115.3
2017-Feb-18 15:32N 05°17' W 004°01'71757317.4
2017-Feb-18 14:34N 24°23' E 118°06'46397979.9
2017-Feb-18 14:33N 31°15' E 122°05'631078.7
2017-Feb-18 14:30N 31°45' E 121°01'728828426.2
2017-Feb-18 14:14N 05°17' W 004°01'717510543.1
2017-Feb-18 13:33N 24°23' E 118°06'46397981.0
2017-Feb-18 13:33N 31°15' E 122°05'637586.8
2017-Feb-18 13:33N 31°45' E 121°01'468474.2
2017-Feb-18 12:33N 24°23' E 118°06'463277609.6
2017-Feb-18 12:33N 31°15' E 122°05'637342.1
2017-Feb-18 12:33N 31°45' E 121°01'2163.6
2017-Feb-18 12:13N 31°31' E 121°20'7308279861.8
2017-Feb-18 12:11N 05°17' W 004°01'717811454.9
2017-Feb-18 11:33N 24°21' E 118°09'464238390.0
2017-Feb-18 11:33N 31°15' E 122°05'63234.6
2017-Feb-18 11:17N 31°45' E 121°01'474650.8
2017-Feb-18 10:33N 24°15' E 118°11'468421241.4
2017-Feb-18 10:33N 31°15' E 122°05'631315.6
2017-Feb-18 10:31N 31°45' E 121°01'0 0.0
2017-Feb-18 09:34N 31°45' E 121°01'6313388.5
2017-Feb-18 09:33N 31°15' E 122°05'0 0.0
2017-Feb-18 08:33N 31°15' E 122°05'63151.4
2017-Feb-18 08:08N 31°45' E 121°01'63107.0
2017-Feb-18 07:33N 31°15' E 122°05'631127.0
2017-Feb-18 07:29N 31°45' E 121°01'5 5.0
2017-Feb-18 06:34N 31°44' E 121°06'5930146.5
2017-Feb-18 06:33N 31°15' E 122°05'11144.4
2017-Feb-18 06:29N 31°04' E 122°03'5761.3
2017-Feb-18 05:34N 31°41' E 121°12'5323691.0
2017-Feb-18 05:33N 31°15' E 122°05'1140434.3
2017-Feb-18 05:33N 31°07' E 121°56'8 8.1
2017-Feb-18 04:34N 31°12' E 121°49'143262.2
2017-Feb-18 04:33N 31°15' E 122°05'5089594.1
2017-Feb-18 04:33N 31°38' E 121°14'0 0.0
2017-Feb-18 03:34N 31°38' E 121°14'5022398.5
2017-Feb-18 03:33N 31°15' E 122°05'1412785.4
2017-Feb-18 03:33N 31°11' E 121°49'1 0.5
2017-Feb-18 02:34N 31°11' E 121°50'144951.8
2017-Feb-18 02:33N 31°15' E 122°05'735322320.5
2017-Feb-18 02:14N 05°16' W 004°02'735310970.6
2017-Feb-18 01:33N 31°15' E 122°05'5014934.9
2017-Feb-18 01:33N 31°38' E 121°14'7303445591.0
2017-Feb-18 01:32N 05°16' W 004°02'73537503.4
2017-Feb-18 00:33N 31°15' E 122°05'4511678.0
2017-Feb-18 00:33N 31°35' E 121°18'730721667.7
2017-Feb-18 00:13N 05°16' W 004°02'731211131.1
2017-Feb-17 23:34N 31°31' E 121°24'3917700.5
2017-Feb-17 23:33N 31°15' E 122°05'3332.8
2017-Feb-17 22:34N 31°26' E 121°30'336548.9
2017-Feb-17 22:33N 31°15' E 122°05'0 0.0
2017-Feb-17 21:33N 31°15' E 122°05'2529978.6
2017-Feb-17 21:33N 31°22' E 121°38'8 8.2
2017-Feb-17 20:34N 31°17' E 121°45'186379.5
2017-Feb-17 20:33N 31°15' E 122°05'1212.3
2017-Feb-17 19:34N 31°10' E 121°52'126326.4
2017-Feb-17 19:33N 31°15' E 122°05'52278.9
2017-Feb-17 19:22N 31°40' E 121°12'5 6.6
2017-Feb-17 18:34N 31°36' E 121°17'48174556.9
2017-Feb-17 18:34N 31°05' E 122°00'102310.4
2017-Feb-17 18:33N 31°15' E 122°05'0 0.0
2017-Feb-17 17:33N 31°15' E 122°05'133252.8
2017-Feb-17 17:33N 31°03' E 122°10'516277.8
2017-Feb-17 17:33N 31°32' E 121°22'3535.0
2017-Feb-17 16:33N 31°10' E 121°53'73414404617.2
2017-Feb-17 16:33N 05°17' W 004°01'73523781098.0
2017-Feb-17 16:33N 31°15' E 122°05'73527217.7
2017-Feb-17 15:32N 05°17' W 004°01'73511260257.1
2017-Feb-17 15:32N 31°04' E 122°03'1140757.6
2017-Feb-17 15:32N 31°15' E 122°05'10668629607.1
2017-Feb-17 15:31N 25°48' W 080°11'106301366686.4
2017-Feb-17 15:30N 31°25' E 121°31'3132.9
2017-Feb-17 14:33N 31°15' E 122°05'735240408.2
2017-Feb-17 14:22N 05°17' W 004°01'73528984.2
2017-Feb-17 13:33N 31°15' E 122°05'73523308421.2
2017-Feb-17 13:33N 05°17' W 004°01'73527386.9
2017-Feb-17 12:33N 31°15' E 122°05'7352161386.3
2017-Feb-17 12:31N 05°17' W 004°01'73527705.2
2017-Feb-17 11:33N 31°15' E 122°05'735246434.0
2017-Feb-17 11:24N 05°17' W 004°01'73528735.1
2017-Feb-17 10:33N 31°15' E 122°05'0 0.0
2017-Feb-17 09:33N 31°15' E 122°05'0 0.0
2017-Feb-17 08:33N 31°15' E 122°05'0 0.0
2017-Feb-17 07:34N 31°15' E 122°05'0 0.0
2017-Feb-17 06:33N 31°15' E 122°05'0 0.0
2017-Feb-17 05:33N 31°15' E 122°05'0 0.0
2017-Feb-17 04:33N 31°15' E 122°05'0 0.0
2017-Feb-17 03:33N 31°15' E 122°05'7353413631.4
2017-Feb-17 03:32N 05°16' W 004°02'694516984.7
2017-Feb-17 03:08N 22°32' E 113°52'6831191.7
2017-Feb-17 02:33N 31°15' E 122°05'0 0.0
2017-Feb-17 01:34N 31°15' E 122°05'0 0.0
2017-Feb-17 00:33N 31°15' E 122°05'0 0.0
2017-Feb-16 23:34N 31°15' E 122°05'607912678.8
2017-Feb-16 23:05N 33°37' W 117°55'607911621.7
2017-Feb-16 22:33N 31°15' E 122°05'11196.7
2017-Feb-16 22:30N 31°03' E 122°06'9 9.5
2017-Feb-16 21:33N 31°07' E 121°57'1139111.7
2017-Feb-16 21:33N 31°15' E 122°05'1514.5
2017-Feb-16 20:33N 31°13' E 121°49'154755.3
2017-Feb-16 20:33N 31°15' E 122°05'735392884.8
2017-Feb-16 20:28N 05°16' W 004°02'73538004.9
2017-Feb-16 19:33N 31°15' E 122°05'208020.4
2017-Feb-16 19:33N 31°19' E 121°42'7332599850.7
2017-Feb-16 19:32N 05°16' W 004°02'735861745.4
2017-Feb-16 19:25N 30°36' E 122°05'49359.1
2017-Feb-16 19:17N 31°15' E 121°30'4967.0
2017-Feb-16 18:33N 30°36' E 122°05'3815379.3
2017-Feb-16 18:33N 31°15' E 122°05'7353802184.9
2017-Feb-16 18:32N 05°16' W 004°02'73587486.9
2017-Feb-16 17:34N 30°36' E 122°05'383642.5
2017-Feb-16 17:33N 31°15' E 122°05'3589.6
2017-Feb-16 17:09N 31°28' E 121°27'3558.3
2017-Feb-16 16:33N 31°15' E 122°05'382232.5
2017-Feb-16 16:32N 30°36' E 122°05'3839.1
2017-Feb-16 15:33N 31°15' E 122°05'391651.8
2017-Feb-16 15:32N 31°30' E 121°23'6105116912.8
2017-Feb-16 15:29N 33°37' W 117°55'666434369.9
2017-Feb-16 15:17N 05°16' W 004°02'735839535.4
2017-Feb-16 15:06N 30°36' E 122°05'3870.0
2017-Feb-16 14:33N 31°15' E 122°05'7352146228.6
2017-Feb-16 14:30N 05°17' W 004°01'6664337895.3
2017-Feb-16 14:29N 33°37' W 117°55'60796557.9
2017-Feb-16 13:33N 31°15' E 122°05'607982579.6
2017-Feb-16 13:29N 33°37' W 117°55'666482726.1
2017-Feb-16 13:24N 05°17' W 004°01'735735886.3
2017-Feb-16 13:12N 30°36' E 122°05'3859.9
2017-Feb-16 12:33N 31°15' E 122°05'7352102985.7
2017-Feb-16 12:29N 05°17' W 004°01'666465908.2
2017-Feb-16 12:23N 33°37' W 117°55'610181655.1
2017-Feb-16 12:18N 31°25' E 121°31'57283.3
2017-Feb-16 12:06N 30°36' E 122°05'735713402.9
2017-Feb-16 11:33N 05°17' W 004°01'732326361768.6
2017-Feb-16 11:33N 31°24' E 121°35'5497806.2
2017-Feb-16 11:33N 30°36' E 122°05'383740.9
2017-Feb-16 11:33N 31°15' E 122°05'0 0.0
2017-Feb-16 10:33N 31°15' E 122°05'607979867.1
2017-Feb-16 10:29N 33°37' W 117°55'666417409.6
2017-Feb-16 10:06N 05°16' W 004°02'735313596.4
2017-Feb-16 09:33N 31°15' E 122°05'0 0.0
2017-Feb-16 08:33N 31°15' E 122°05'7353802187.0
2017-Feb-16 08:33N 05°16' W 004°02'73537423.5
2017-Feb-16 07:33N 31°15' E 122°05'0 0.0
2017-Feb-16 06:33N 31°15' E 122°05'0 0.0
2017-Feb-16 05:33N 31°15' E 122°05'607922082.3
2017-Feb-16 05:17N 33°37' W 117°55'60798289.2
2017-Feb-16 04:33N 31°15' E 122°05'173819.8
2017-Feb-16 04:33N 31°16' E 121°46'9 9.3
2017-Feb-16 03:33N 31°10' E 121°53'1241930.2
2017-Feb-16 03:33N 31°15' E 122°05'1110.9
2017-Feb-16 02:34N 31°04' E 122°01'113029.3
2017-Feb-16 02:33N 31°15' E 122°05'0 0.0
2017-Feb-16 01:33N 31°15' E 122°05'151134.6
2017-Feb-16 01:32N 30°60' E 122°10'1515.7
2017-Feb-16 00:33N 31°15' E 122°05'15322.3
2017-Feb-16 00:30N 30°60' E 122°10'1516.3
2017-Feb-15 23:33N 31°15' E 122°05'154647.3
2017-Feb-15 23:33N 30°60' E 122°10'1934616.1
2017-Feb-15 23:33N 31°10' E 121°51'1313.1
2017-Feb-15 22:33N 31°15' E 122°05'1527863.3
2017-Feb-15 22:33N 30°60' E 122°10'2820276.5
2017-Feb-15 22:33N 31°17' E 121°44'73331760004.9
2017-Feb-15 22:33N 05°16' W 004°02'686782956.1
2017-Feb-15 22:28N 49°18' W 122°54'53765918.3
2017-Feb-15 21:33N 31°15' E 122°05'73531203273.8
2017-Feb-15 21:33N 05°16' W 004°02'7326561141.6
2017-Feb-15 21:32N 31°22' E 121°37'402266.3
2017-Feb-15 21:31N 30°57' E 122°13'1919.9
2017-Feb-15 20:33N 31°15' E 122°05'7353401091.0
2017-Feb-15 20:32N 05°16' W 004°02'73537511.9
2017-Feb-15 19:33N 31°15' E 122°05'7353339384.9
2017-Feb-15 19:32N 05°16' W 004°02'73537514.1
2017-Feb-15 18:33N 31°15' E 122°05'735376288.2
2017-Feb-15 18:28N 05°16' W 004°02'686723815.9
2017-Feb-15 18:10N 49°18' W 122°54'53768741.1
2017-Feb-15 17:33N 31°15' E 122°05'53769676347.1
2017-Feb-15 17:33N 49°18' W 122°54'539448187.1
2017-Feb-15 17:27N 31°36' E 121°17'730626540.0
2017-Feb-15 17:10N 05°16' W 004°02'666477637.6
2017-Feb-15 17:05N 33°37' W 117°55'607911548.1
2017-Feb-15 16:33N 31°15' E 122°05'735231926.7
2017-Feb-15 16:20N 05°17' W 004°01'73529517.2
2017-Feb-15 15:33N 31°15' E 122°05'7352189051.6
2017-Feb-15 15:31N 05°17' W 004°01'73527673.9
2017-Feb-15 14:33N 31°15' E 122°05'735284023.0
2017-Feb-15 14:28N 05°17' W 004°01'666423337.2
2017-Feb-15 14:11N 33°37' W 117°55'6101114984.2
2017-Feb-15 14:08N 30°35' E 122°07'4069.1
2017-Feb-15 13:33N 31°15' E 122°05'73521323362.8
2017-Feb-15 13:33N 05°17' W 004°01'73527372.5
2017-Feb-15 12:33N 31°15' E 122°05'30793.8
2017-Feb-15 12:31N 30°45' E 122°13'3031.4
2017-Feb-15 11:33N 31°15' E 122°05'234521.6
2017-Feb-15 11:33N 30°53' E 122°13'736215284.5
2017-Feb-15 11:04N 05°17' W 004°01'735214392.2
2017-Feb-15 10:33N 31°15' E 122°05'151462.0
2017-Feb-15 10:33N 31°00' E 122°08'735836686.3
2017-Feb-15 10:21N 05°16' W 004°02'73499325.0
2017-Feb-15 09:34N 31°05' E 121°59'119674.4
2017-Feb-15 09:33N 31°15' E 122°05'7353362630.4
2017-Feb-15 09:32N 05°16' W 004°02'73407500.7
2017-Feb-15 08:34N 31°10' E 121°51'1315959.3
2017-Feb-15 08:33N 31°15' E 122°05'735330323.1
2017-Feb-15 08:19N 05°16' W 004°02'73359693.9
2017-Feb-15 07:34N 31°15' E 121°46'1715152.4
2017-Feb-15 07:33N 31°15' E 122°05'735366680.3
2017-Feb-15 07:27N 05°16' W 004°02'73307433.5
2017-Feb-15 06:28N 31°19' E 121°41'215881.9
2017-Feb-15 06:27N 31°15' E 122°05'2427.1
2017-Feb-15 05:34N 31°21' E 121°38'241624.4
2017-Feb-15 05:33N 31°15' E 122°05'4821711.5
2017-Feb-15 05:16N 24°01' E 118°08'6 8.8
2017-Feb-15 04:33N 24°07' E 118°10'473850502.6
2017-Feb-15 04:33N 31°24' E 121°33'297464.3
2017-Feb-15 04:33N 31°15' E 122°05'468471.5
2017-Feb-15 03:34N 24°15' E 118°10'468562086.0
2017-Feb-15 03:33N 31°15' E 122°05'463463.3
2017-Feb-15 02:34N 24°22' E 118°07'463416667.0
2017-Feb-15 02:33N 31°15' E 122°05'4532410.2
2017-Feb-15 02:33N 31°35' E 121°18'4545.0
2017-Feb-15 01:33N 31°15' E 122°05'5035933.0
2017-Feb-15 01:33N 31°38' E 121°14'46512979.6
2017-Feb-15 01:31N 24°25' E 118°02'653349509.8
2017-Feb-15 01:23N 33°37' W 117°55'61087381.9
2017-Feb-15 00:34N 31°38' E 121°14'5044913.7
2017-Feb-15 00:33N 31°15' E 122°05'46311733.2
2017-Feb-15 00:31N 24°25' E 118°02'465483.4
2017-Feb-14 23:33N 31°38' E 121°14'5059884.9
2017-Feb-14 23:33N 31°15' E 122°05'46312433.8
2017-Feb-14 23:31N 24°25' E 118°02'7172403419.1
2017-Feb-14 23:30N 05°16' W 004°02'736442622.7
2017-Feb-14 23:20N 30°56' E 122°15'6787.1
2017-Feb-14 22:34N 31°38' E 121°14'6577437.2
2017-Feb-14 22:33N 31°02' E 122°16'1657631.9
2017-Feb-14 22:33N 31°15' E 122°05'46311570.5
2017-Feb-14 22:31N 24°25' E 118°02'717249747.2
2017-Feb-14 22:22N 05°16' W 004°02'73038963.3
2017-Feb-14 21:34N 31°38' E 121°14'5035933.0
2017-Feb-14 21:33N 31°15' E 122°05'46311651.0
2017-Feb-14 21:31N 24°25' E 118°02'71726454690.7
2017-Feb-14 21:31N 05°16' W 004°02'73027622.0
2017-Feb-14 20:34N 31°39' E 121°14'5060304.3
2017-Feb-14 20:33N 31°15' E 122°05'7353367666.5
2017-Feb-14 20:32N 05°16' W 004°02'7172368839.6
2017-Feb-14 20:31N 24°25' E 118°02'71727475.0
2017-Feb-14 19:34N 05°16' W 004°02'73536618003.1
2017-Feb-14 19:33N 31°15' E 122°05'46311571.2
2017-Feb-14 19:31N 24°25' E 118°02'463482.0
2017-Feb-14 18:33N 31°15' E 122°05'5914073.6
2017-Feb-14 18:33N 31°44' E 121°06'7295729460.8
2017-Feb-14 18:33N 05°16' W 004°02'7172286868.7
2017-Feb-14 18:31N 24°25' E 118°02'468488.1
2017-Feb-14 17:34N 31°47' E 120°58'5768067.9
2017-Feb-14 17:33N 31°11' E 121°50'131485.7
2017-Feb-14 17:33N 31°15' E 122°05'46315013.1
2017-Feb-14 17:31N 24°25' E 118°02'463481.9
2017-Feb-14 16:33N 31°15' E 122°05'104538.9
2017-Feb-14 16:33N 31°05' E 122°02'45312353.9
2017-Feb-14 16:31N 24°25' E 118°02'71721229410.5
2017-Feb-14 16:31N 05°16' W 004°02'72811747495.7
2017-Feb-14 16:31N 31°54' E 120°53'7376.8
2017-Feb-14 15:33N 31°15' E 122°05'813865.6
2017-Feb-14 15:32N 32°00' E 120°48'9524387.3
2017-Feb-14 15:32N 30°59' E 122°12'45231265.5
2017-Feb-14 15:31N 24°25' E 118°02'7170697670.3
2017-Feb-14 15:30N 05°17' W 004°01'73667751.1
2017-Feb-14 14:33N 30°50' E 122°17'2795860.7
2017-Feb-14 14:33N 31°15' E 122°05'46311902.7
2017-Feb-14 14:31N 24°25' E 118°02'45886781.6
2017-Feb-14 14:31N 31°24' E 121°31'7319675580.9
2017-Feb-14 14:30N 05°17' W 004°01'7263100184.6
2017-Feb-14 14:26N 31°60' E 120°36'72638338.1
2017-Feb-14 13:34N 05°17' W 004°01'72558706067.0
2017-Feb-14 13:33N 32°02' E 120°27'96173143.9
2017-Feb-14 13:33N 31°15' E 122°05'352602.8
2017-Feb-14 13:33N 30°42' E 122°20'4415831.6
2017-Feb-14 13:28N 24°25' E 118°02'4601611.5
2017-Feb-14 13:11N 31°28' E 121°26'5 7.3
2017-Feb-14 12:33N 31°31' E 121°22'4116285.5
2017-Feb-14 12:33N 31°15' E 122°05'46312436.6
2017-Feb-14 12:31N 24°25' E 118°02'717145208.2
2017-Feb-14 12:22N 05°17' W 004°01'73049126.6
2017-Feb-14 11:34N 31°36' E 121°16'4733957.2
2017-Feb-14 11:33N 31°15' E 122°05'46311735.5
2017-Feb-14 11:31N 24°25' E 118°02'7171437526.7
2017-Feb-14 11:30N 05°17' W 004°01'72987729.5
2017-Feb-14 10:33N 31°41' E 121°11'5410712.6
2017-Feb-14 10:33N 31°15' E 122°05'735213233771.4
2017-Feb-14 10:33N 05°17' W 004°01'7171211593.2
2017-Feb-14 10:31N 24°25' E 118°02'463477.8
2017-Feb-14 09:33N 31°15' E 122°05'46314615.9
2017-Feb-14 09:31N 24°25' E 118°02'7172697805.6
2017-Feb-14 09:30N 05°16' W 004°02'73537724.6
2017-Feb-14 08:33N 31°15' E 122°05'46312342.3
2017-Feb-14 08:31N 24°25' E 118°02'717270159.6
2017-Feb-14 08:25N 05°16' W 004°02'0 0.0
2017-Feb-14 07:34N 05°16' W 004°02'71725163660.7
2017-Feb-14 07:33N 24°25' E 118°02'4631666278.4
2017-Feb-14 07:33N 31°15' E 122°05'607934408.2
2017-Feb-14 07:23N 33°37' W 117°55'60797388.1
2017-Feb-14 06:33N 31°15' E 122°05'7353519061.9
2017-Feb-14 06:33N 05°16' W 004°02'6664106152.0
2017-Feb-14 06:29N 33°37' W 117°55'65383362358.6
2017-Feb-14 06:29N 24°24' E 117°57'466505.9
2017-Feb-14 05:33N 31°15' E 122°05'46616614.5
2017-Feb-14 05:32N 24°24' E 117°57'466479.4
2017-Feb-14 04:33N 31°15' E 122°05'46616452.0
2017-Feb-14 04:32N 24°24' E 117°57'466479.9
2017-Feb-14 03:33N 31°15' E 122°05'46616611.5
2017-Feb-14 03:32N 24°24' E 117°57'466479.5
2017-Feb-14 02:33N 31°15' E 122°05'46616777.8
2017-Feb-14 02:32N 24°24' E 117°57'466479.4
2017-Feb-14 01:33N 31°15' E 122°05'46616777.8
2017-Feb-14 01:32N 24°24' E 117°57'466479.4
2017-Feb-14 00:33N 31°15' E 122°05'46616777.8
2017-Feb-14 00:32N 24°24' E 117°57'4423894.1
2017-Feb-14 00:25N 30°39' E 122°21'737245214.0
2017-Feb-14 00:15N 05°16' W 004°02'735310567.8
2017-Feb-13 23:33N 31°15' E 122°05'3113946.8
2017-Feb-13 23:33N 30°45' E 122°16'7367530424.8
2017-Feb-13 23:32N 05°16' W 004°02'7167586406.4
2017-Feb-13 23:32N 24°24' E 117°57'451464.0
2017-Feb-13 22:33N 30°53' E 122°14'2383512.7
2017-Feb-13 22:33N 31°15' E 122°05'7353464423.5
2017-Feb-13 22:32N 05°16' W 004°02'7167560910.4
2017-Feb-13 22:32N 24°24' E 117°57'466479.8
2017-Feb-13 21:33N 31°15' E 122°05'162047.7
2017-Feb-13 21:33N 30°59' E 122°12'45522759.6
2017-Feb-13 21:32N 24°24' E 117°57'7167860062.9
2017-Feb-13 21:31N 05°16' W 004°02'73537633.3
2017-Feb-13 20:33N 31°15' E 122°05'7353456415.8
2017-Feb-13 20:32N 05°16' W 004°02'7355854074.7
2017-Feb-13 20:32N 31°04' E 122°05'456149321.4
2017-Feb-13 20:32N 24°24' E 117°57'466478.1
2017-Feb-13 19:33N 31°15' E 122°05'113587.6
2017-Feb-13 19:33N 31°06' E 121°57'45520489.7
2017-Feb-13 19:32N 24°24' E 117°57'653818828.9
2017-Feb-13 19:11N 33°37' W 117°55'60799726.0
2017-Feb-13 18:33N 31°15' E 122°05'46616614.7
2017-Feb-13 18:32N 24°24' E 117°57'4726934.0
2017-Feb-13 18:28N 31°46' E 121°03'7292116156.2
2017-Feb-13 18:24N 05°16' W 004°02'73378728.7
2017-Feb-13 17:33N 31°13' E 121°48'1555060.4
2017-Feb-13 17:33N 31°15' E 122°05'502499.1
2017-Feb-13 17:32N 31°39' E 121°14'46958171.4
2017-Feb-13 17:32N 24°24' E 117°57'7167296566.0
2017-Feb-13 17:30N 05°16' W 004°02'73347738.3
2017-Feb-13 16:33N 31°16' E 121°45'1831598.3
2017-Feb-13 16:33N 31°15' E 122°05'3913994.0
2017-Feb-13 16:33N 31°31' E 121°24'46518584.7
2017-Feb-13 16:32N 24°24' E 117°57'7166255413.8
2017-Feb-13 16:30N 05°17' W 004°01'73217754.1
2017-Feb-13 15:33N 31°24' E 121°33'2911558.8
2017-Feb-13 15:33N 31°15' E 122°05'7352945259.4
2017-Feb-13 15:33N 05°17' W 004°01'7166422902.0
2017-Feb-13 15:32N 24°24' E 117°57'8912794.0
2017-Feb-13 15:13N 38°51' E 121°57'4483558.4
2017-Feb-13 15:05N 31°24' E 121°31'447843.8
2017-Feb-13 14:33N 38°51' E 121°51'45678171.2
2017-Feb-13 14:33N 31°15' E 122°05'73521058690.0
2017-Feb-13 14:33N 05°17' W 004°01'7166548876.5
2017-Feb-13 14:32N 24°24' E 117°57'4624724.1
2017-Feb-13 14:26N 31°22' E 121°39'2326.5
2017-Feb-13 13:33N 31°15' E 122°05'46620461.8
2017-Feb-13 13:32N 24°24' E 117°57'7166260577.6
2017-Feb-13 13:30N 05°17' W 004°01'7327274762.0
2017-Feb-13 13:29N 31°22' E 121°39'4548552.4
2017-Feb-13 13:25N 38°55' E 121°46'461533.3
2017-Feb-13 12:33N 31°15' E 122°05'466209725.8
2017-Feb-13 12:33N 39°01' E 121°45'7276873156.9
2017-Feb-13 12:33N 05°17' W 004°01'7166416083.8
2017-Feb-13 12:32N 24°24' E 117°57'6538140935.0
2017-Feb-13 12:29N 33°37' W 117°55'6097399054.1
2017-Feb-13 12:28N 31°22' E 121°39'2325.6
2017-Feb-13 11:33N 31°15' E 122°05'242740.0
2017-Feb-13 11:33N 31°21' E 121°39'460413969.8
2017-Feb-13 11:33N 39°01' E 121°45'89846849.1
2017-Feb-13 11:32N 24°24' E 117°57'7166310809.8
2017-Feb-13 11:30N 05°17' W 004°01'73527754.8
2017-Feb-13 10:33N 31°15' E 122°05'241846.6
2017-Feb-13 10:33N 31°21' E 121°39'46129090.5
2017-Feb-13 10:32N 24°24' E 117°57'7166560808.8
2017-Feb-13 10:31N 05°17' W 004°01'73527667.2
2017-Feb-13 09:33N 31°15' E 122°05'46616290.0
2017-Feb-13 09:32N 24°24' E 117°57'7167164341.1
2017-Feb-13 09:29N 05°16' W 004°02'732851025.2
2017-Feb-13 09:21N 31°21' E 121°39'4603118.5
2017-Feb-13 09:12N 39°01' E 121°45'466732.0
2017-Feb-13 08:33N 31°15' E 122°05'466209725.8
2017-Feb-13 08:33N 39°01' E 121°45'7278557443.6
2017-Feb-13 08:33N 05°16' W 004°02'73282398221.1
2017-Feb-13 08:32N 31°21' E 121°39'4617748.9
2017-Feb-13 08:29N 24°24' E 117°57'466505.4
2017-Feb-13 07:33N 31°15' E 122°05'466209723.1
2017-Feb-13 07:33N 39°01' E 121°45'45816645.6
2017-Feb-13 07:32N 31°23' E 121°35'4619599.2
2017-Feb-13 07:29N 24°24' E 117°57'716720774.2
2017-Feb-13 07:08N 05°16' W 004°02'735312739.2
2017-Feb-13 06:33N 31°15' E 122°05'352541.8
2017-Feb-13 06:33N 31°27' E 121°28'453181361.7
2017-Feb-13 06:32N 39°01' E 121°45'89871838.0
2017-Feb-13 06:32N 24°24' E 117°57'716755605.9
2017-Feb-13 06:24N 05°16' W 004°02'73538702.2
2017-Feb-13 05:33N 31°15' E 122°05'7353630285.7
2017-Feb-13 05:33N 05°16' W 004°02'7167496175.7
2017-Feb-13 05:32N 24°24' E 117°57'464185627.0
2017-Feb-13 05:32N 31°31' E 121°23'4502958.3
2017-Feb-13 05:22N 39°01' E 121°45'5 5.8
2017-Feb-13 04:33N 38°56' E 121°47'4611661070.0
2017-Feb-13 04:33N 31°15' E 122°05'3912898.9
2017-Feb-13 04:33N 31°31' E 121°23'46418358.3
2017-Feb-13 04:32N 24°24' E 117°57'466479.6
2017-Feb-13 03:33N 31°15' E 122°05'454816728.5
2017-Feb-13 03:33N 38°48' E 121°46'43868565.7
2017-Feb-13 03:33N 31°31' E 121°23'46422881.8
2017-Feb-13 03:32N 24°24' E 117°57'466479.2
2017-Feb-13 02:33N 31°15' E 122°05'447536273.8
2017-Feb-13 02:33N 38°41' E 121°43'43145638.7
2017-Feb-13 02:33N 31°31' E 121°23'46425697.5
2017-Feb-13 02:32N 24°24' E 117°57'456469.3
2017-Feb-13 01:33N 31°06' E 121°59'454326929.7
2017-Feb-13 01:33N 38°40' E 121°42'445178154.2
2017-Feb-13 01:33N 31°15' E 122°05'393222.8
2017-Feb-13 01:33N 31°31' E 121°23'4647327.3
2017-Feb-13 01:29N 24°24' E 117°57'467507.7
2017-Feb-13 00:33N 31°37' E 121°16'4885841.7
2017-Feb-13 00:33N 31°15' E 122°05'163112.3
2017-Feb-13 00:33N 30°60' E 122°10'45922346.2
2017-Feb-13 00:32N 38°38' E 121°41'87616592.8
2017-Feb-13 00:29N 24°24' E 117°57'466505.6
2017-Feb-12 23:33N 31°15' E 122°05'241293.4
2017-Feb-12 23:32N 30°52' E 122°14'45046251.6
2017-Feb-12 23:32N 24°24' E 117°57'653845612.2
2017-Feb-12 23:23N 33°37' W 117°55'6664179032.7
2017-Feb-12 23:21N 05°16' W 004°02'73669323.5
2017-Feb-12 22:34N 30°44' E 122°14'327617.1
2017-Feb-12 22:33N 31°15' E 122°05'7353588266.9
2017-Feb-12 22:33N 05°16' W 004°02'7167548973.7
2017-Feb-12 22:32N 24°24' E 117°57'466479.6
2017-Feb-12 21:33N 31°15' E 122°05'3923369.5
2017-Feb-12 21:33N 30°36' E 122°13'73651205228.0
2017-Feb-12 21:33N 05°16' W 004°02'7167368596.4
2017-Feb-12 21:32N 24°24' E 117°57'653826836.9
2017-Feb-12 21:17N 33°37' W 117°55'60798339.8
2017-Feb-12 20:33N 31°15' E 122°05'469719.2
2017-Feb-12 20:33N 30°29' E 122°06'42718290.2
2017-Feb-12 20:32N 24°24' E 117°57'7167353448.6
2017-Feb-12 20:31N 05°16' W 004°02'73537726.8
2017-Feb-12 19:33N 31°15' E 122°05'7353270122.5
2017-Feb-12 19:32N 05°16' W 004°02'71676450438.5
2017-Feb-12 19:32N 24°24' E 117°57'8305978.2
2017-Feb-12 19:23N 37°54' E 121°31'400480.1
2017-Feb-12 18:33N 31°15' E 122°05'3931413807.1
2017-Feb-12 18:33N 37°46' E 121°29'7272331386.6
2017-Feb-12 18:32N 05°16' W 004°02'7167129007.6
2017-Feb-12 18:29N 24°24' E 117°57'814881.9
2017-Feb-12 17:33N 37°37' E 121°27'384197456.1
2017-Feb-12 17:33N 31°15' E 122°05'46619068.1
2017-Feb-12 17:32N 24°24' E 117°57'71678600403.4
2017-Feb-12 17:32N 05°16' W 004°02'457168854.9
2017-Feb-12 17:28N 25°43' W 080°11'1067311785.6
2017-Feb-12 16:33N 31°15' E 122°05'382344190.8
2017-Feb-12 16:33N 37°36' E 121°25'81231085.8
2017-Feb-12 16:32N 24°24' E 117°57'466479.0
2017-Feb-12 15:33N 31°15' E 122°05'382688370.9
2017-Feb-12 15:33N 37°36' E 121°25'81229515.2
2017-Feb-12 15:32N 24°24' E 117°57'1075740719.8
2017-Feb-12 15:16N 25°56' W 080°08'456958537.9
2017-Feb-12 15:11N 05°16' W 004°02'735311676.9
2017-Feb-12 14:33N 31°15' E 122°05'382125160.3
2017-Feb-12 14:33N 37°36' E 121°25'161134.9
2017-Feb-12 14:32N 37°45' E 121°08'72521631669.1
2017-Feb-12 14:32N 05°17' W 004°01'71661121612.2
2017-Feb-12 14:32N 24°24' E 117°57'1075828433.9
2017-Feb-12 14:09N 25°56' W 080°09'1065917956.5
2017-Feb-12 13:33N 31°15' E 122°05'3821376741.7
2017-Feb-12 13:33N 37°36' E 121°25'72681308240.0
2017-Feb-12 13:33N 05°17' W 004°01'7166335027.4
2017-Feb-12 13:32N 24°24' E 117°57'1075883283.9
2017-Feb-12 13:24N 25°56' W 080°09'1065912643.5
2017-Feb-12 12:33N 31°15' E 122°05'382344190.8
2017-Feb-12 12:33N 37°36' E 121°25'7268792872.7
2017-Feb-12 12:33N 05°17' W 004°01'7166396878.5
2017-Feb-12 12:32N 24°24' E 117°57'1075832819.5
2017-Feb-12 12:12N 25°56' W 080°09'1065916547.2
2017-Feb-12 11:33N 31°15' E 122°05'382688381.6
2017-Feb-12 11:33N 37°36' E 121°25'81229815.5
2017-Feb-12 11:32N 24°24' E 117°57'716634813.9
2017-Feb-12 11:19N 05°17' W 004°01'457062797.5
2017-Feb-12 11:15N 25°56' W 080°09'1065915367.6
2017-Feb-12 10:33N 31°15' E 122°05'382688381.6
2017-Feb-12 10:33N 37°36' E 121°25'7268115263.4
2017-Feb-12 10:30N 05°17' W 004°01'7166515942.1
2017-Feb-12 10:29N 24°24' E 117°57'1075847113.2
2017-Feb-12 10:15N 25°56' W 080°09'1065915361.5
2017-Feb-12 09:33N 31°15' E 122°05'382458913.9
2017-Feb-12 09:33N 37°36' E 121°25'81229815.3
2017-Feb-12 09:32N 24°24' E 117°57'7166429951.1
2017-Feb-12 09:31N 05°17' W 004°01'729319754.1
2017-Feb-12 09:09N 31°45' E 121°05'60101.7
2017-Feb-12 08:33N 31°15' E 122°05'382105903.2
2017-Feb-12 08:33N 37°36' E 121°25'354319025.1
2017-Feb-12 08:33N 31°41' E 121°10'47020130.6
2017-Feb-12 08:32N 24°24' E 117°57'7167124046.4
2017-Feb-12 08:28N 05°16' W 004°02'725332927.1
2017-Feb-12 08:15N 37°43' E 121°07'391563.8
2017-Feb-12 07:33N 31°15' E 122°05'3821376698.7
2017-Feb-12 07:33N 37°36' E 121°25'36176481.9
2017-Feb-12 07:33N 31°35' E 121°19'46620468.1
2017-Feb-12 07:32N 24°24' E 117°57'8172939901.9
2017-Feb-12 07:32N 37°44' E 121°10'392402.9
2017-Feb-12 06:33N 31°15' E 122°05'382688360.1
2017-Feb-12 06:33N 37°36' E 121°25'113222.8
2017-Feb-12 06:33N 37°42' E 121°14'102917409383.2
2017-Feb-12 06:33N 25°56' W 080°09'10615419946.9
2017-Feb-12 06:32N 31°30' E 121°30'4664795.2
2017-Feb-12 06:26N 24°24' E 117°57'812930.0
2017-Feb-12 05:33N 37°36' E 121°25'368330850.9
2017-Feb-12 05:33N 31°28' E 121°42'370190058.4
2017-Feb-12 05:33N 37°38' E 121°24'384197678.0
2017-Feb-12 05:33N 31°15' E 122°05'46620976.1
2017-Feb-12 05:32N 24°24' E 117°57'716725171.8
2017-Feb-12 05:15N 05°16' W 004°02'726910565.2
2017-Feb-12 04:33N 37°36' E 121°25'38276484.5
2017-Feb-12 04:33N 31°15' E 122°05'3811370144.2
2017-Feb-12 04:33N 37°34' E 121°25'81038363.4
2017-Feb-12 04:32N 24°24' E 117°57'7167191119.5
2017-Feb-12 04:30N 05°16' W 004°02'73537862.2
2017-Feb-12 03:33N 31°15' E 122°05'382688349.3
2017-Feb-12 03:33N 37°36' E 121°25'2328.4
2017-Feb-12 03:33N 37°34' E 121°25'81036906.8
2017-Feb-12 03:32N 24°24' E 117°57'1075760986.9
2017-Feb-12 03:21N 25°56' W 080°09'1066940861.3
2017-Feb-12 03:06N 31°03' E 122°06'1121.4
2017-Feb-12 02:33N 31°15' E 122°05'382688360.1
2017-Feb-12 02:33N 37°36' E 121°25'21102.0
2017-Feb-12 02:33N 37°34' E 121°25'39113149.7
2017-Feb-12 02:32N 31°04' E 122°03'4569891.3
2017-Feb-12 02:29N 24°24' E 117°57'455494.6
2017-Feb-12 01:34N 31°06' E 121°59'391175907.2
2017-Feb-12 01:33N 37°36' E 121°25'382172090.0
2017-Feb-12 01:33N 31°15' E 122°05'381124834.4
2017-Feb-12 01:33N 37°35' E 121°25'81111401.1
2017-Feb-12 01:29N 24°24' E 117°57'10758139306.8
2017-Feb-12 01:24N 25°56' W 080°09'1065612618.7
2017-Feb-12 00:33N 31°08' E 121°55'389233210.5
2017-Feb-12 00:33N 37°36' E 121°25'38249152.2
2017-Feb-12 00:33N 31°15' E 122°05'46624315.6
2017-Feb-12 00:32N 24°24' E 117°57'4631891.4
2017-Feb-12 00:17N 31°30' E 121°24'2838.9
2017-Feb-11 23:34N 31°12' E 121°49'1410111.8
2017-Feb-11 23:33N 31°15' E 122°05'382344176.1
2017-Feb-11 23:33N 37°36' E 121°25'032.1
2017-Feb-11 23:33N 37°36' E 121°25'363326372.5
2017-Feb-11 23:33N 31°33' E 121°20'4656917.8
2017-Feb-11 23:29N 24°24' E 117°57'811879.6
2017-Feb-11 22:33N 37°35' E 121°25'382687008.8
2017-Feb-11 22:33N 31°15' E 122°05'382105900.3
2017-Feb-11 22:33N 37°36' E 121°25'81233585.1
2017-Feb-11 22:32N 24°24' E 117°57'1075838921.9
2017-Feb-11 22:15N 25°56' W 080°09'4570161294.1
2017-Feb-11 22:13N 05°16' W 004°02'735311016.2
2017-Feb-11 21:33N 31°15' E 122°05'382688363.0
2017-Feb-11 21:33N 37°36' E 121°25'51256.5
2017-Feb-11 21:33N 37°40' E 121°22'81534529.1
2017-Feb-11 21:32N 24°24' E 117°57'716725221.7
2017-Feb-11 21:15N 05°16' W 004°02'457023878.2
2017-Feb-11 21:03N 25°56' W 080°09'1065921461.4
2017-Feb-11 20:33N 31°15' E 122°05'382458901.5
2017-Feb-11 20:33N 37°36' E 121°25'12615.6
2017-Feb-11 20:32N 37°45' E 121°14'819140408.5
2017-Feb-11 20:32N 24°24' E 117°57'46813277.4
2017-Feb-11 20:30N 31°39' E 121°13'10593254230.3
2017-Feb-11 20:27N 25°56' W 080°09'457082673.6
2017-Feb-11 20:24N 05°16' W 004°02'72698639.9
2017-Feb-11 19:33N 37°36' E 121°25'382172090.8
2017-Feb-11 19:33N 31°15' E 122°05'512198.3
2017-Feb-11 19:32N 31°39' E 121°13'468421557.1
2017-Feb-11 19:32N 24°24' E 117°57'82375963.8
2017-Feb-11 19:31N 37°50' E 121°08'7252100419.0
2017-Feb-11 19:27N 05°16' W 004°02'73538267.3
2017-Feb-11 18:33N 31°15' E 122°05'382458908.7
2017-Feb-11 18:33N 37°36' E 121°25'7269109498.6
2017-Feb-11 18:29N 05°16' W 004°02'7167697339.0
2017-Feb-11 18:29N 24°24' E 117°57'812879.1
2017-Feb-11 17:33N 37°36' E 121°25'38249168.0
2017-Feb-11 17:33N 31°15' E 122°05'7353193227.2
2017-Feb-11 17:31N 05°16' W 004°02'7167230370.3
2017-Feb-11 17:29N 24°24' E 117°57'4693359.8
2017-Feb-11 17:20N 31°39' E 121°13'47176.4
2017-Feb-11 17:05N 32°03' E 120°25'98188.5
2017-Feb-11 16:33N 31°15' E 122°05'382688352.3
2017-Feb-11 16:33N 37°36' E 121°25'7270363476.3
2017-Feb-11 16:32N 05°16' W 004°02'71671032050.3
2017-Feb-11 16:32N 24°24' E 117°57'4701443.7
2017-Feb-11 16:12N 31°29' E 121°45'2234.6
2017-Feb-11 15:33N 31°15' E 122°05'3821376683.0
2017-Feb-11 15:33N 37°36' E 121°25'37066627.3
2017-Feb-11 15:33N 31°26' E 121°45'4686527.7
2017-Feb-11 15:29N 24°24' E 117°57'462500.7
2017-Feb-11 14:33N 31°18' E 121°47'3781360255.3
2017-Feb-11 14:33N 37°36' E 121°25'81230758.6
2017-Feb-11 14:32N 24°24' E 117°57'466479.0
2017-Feb-11 13:33N 31°15' E 122°05'382114725.4
2017-Feb-11 13:33N 37°36' E 121°25'382383.7
2017-Feb-11 12:33N 31°15' E 122°05'382688341.5
2017-Feb-11 12:33N 37°36' E 121°25'38769652.7
2017-Feb-11 12:33N 31°09' E 121°53'456968.2
2017-Feb-11 12:05N 24°24' E 117°57'8121552.6
2017-Feb-11 11:33N 37°36' E 121°25'39010554.1
2017-Feb-11 11:31N 31°07' E 121°58'73471150042.9
2017-Feb-11 11:31N 05°16' W 004°02'716786005.3
2017-Feb-11 11:26N 24°24' E 117°57'4745075.8
2017-Feb-11 11:20N 31°59' E 120°27'98125.7
2017-Feb-11 10:34N 31°04' E 122°02'393201956.6
2017-Feb-11 10:33N 37°36' E 121°25'382125153.0
2017-Feb-11 10:33N 31°15' E 122°05'7353372845.6
2017-Feb-11 10:32N 05°16' W 004°02'73537526.9
2017-Feb-11 09:33N 31°15' E 122°05'3811370949.7
2017-Feb-11 09:33N 37°34' E 121°25'7270493823.0
2017-Feb-11 09:33N 05°16' W 004°02'725649011.2
2017-Feb-11 09:24N 31°59' E 120°26'95113.5
2017-Feb-11 08:33N 31°15' E 122°05'381137167.4
2017-Feb-11 08:33N 37°34' E 121°25'72704362277.4
2017-Feb-11 08:33N 05°16' W 004°02'73537390.3
2017-Feb-11 07:33N 31°15' E 122°05'388697995.6
2017-Feb-11 07:33N 37°41' E 121°29'81437112.1
2017-Feb-11 07:32N 24°26' E 118°04'7173573868.6
2017-Feb-11 07:31N 05°16' W 004°02'716777019.5
2017-Feb-11 07:26N 24°24' E 117°57'4746386.4
2017-Feb-11 07:21N 31°59' E 120°26'72569098.9
2017-Feb-11 06:33N 05°16' W 004°02'73538824010.5
2017-Feb-11 06:33N 31°15' E 122°05'39545884.7
2017-Feb-11 06:33N 37°49' E 121°32'8264890.1
2017-Feb-11 06:23N 24°24' E 117°57'71678731.5
2017-Feb-11 05:34N 05°16' W 004°02'73531654503.0
2017-Feb-11 05:33N 31°15' E 122°05'46619287.6
2017-Feb-11 05:32N 24°24' E 117°57'466476.4
2017-Feb-11 04:33N 31°15' E 122°05'46621793.6
2017-Feb-11 04:32N 24°24' E 117°57'71674300192.9
2017-Feb-11 04:32N 05°16' W 004°02'73537569.9
2017-Feb-11 03:33N 31°15' E 122°05'4666058.2
2017-Feb-11 03:29N 24°24' E 117°57'466503.3
2017-Feb-11 02:33N 31°15' E 122°05'46618854.7
2017-Feb-11 02:32N 24°24' E 117°57'4741633.8
2017-Feb-11 02:14N 31°59' E 120°27'95138.7
2017-Feb-11 01:33N 31°15' E 122°05'4663728.6
2017-Feb-11 01:26N 24°24' E 117°57'466534.3
2017-Feb-11 00:33N 31°15' E 122°05'46617120.9
2017-Feb-11 00:32N 24°24' E 117°57'12119.2
2017-Feb-11 00:26N 24°25' E 118°09'460525.0
2017-Feb-10 23:33N 31°15' E 122°05'44673059.7
2017-Feb-10 23:33N 38°41' E 121°51'7285771368.6
2017-Feb-10 23:32N 05°16' W 004°02'7167645039.5
2017-Feb-10 23:32N 24°24' E 117°57'466478.6
2017-Feb-10 22:33N 31°15' E 122°05'7353383652.7
2017-Feb-10 22:32N 05°16' W 004°02'7167921484.7
2017-Feb-10 22:32N 24°24' E 117°57'88817375.0
2017-Feb-10 22:29N 38°49' E 121°53'454492.8
2017-Feb-10 21:33N 31°15' E 122°05'46617297.2
2017-Feb-10 21:32N 24°24' E 117°57'7167860051.7
2017-Feb-10 21:31N 05°16' W 004°02'725720361.4
2017-Feb-10 21:10N 31°58' E 120°27'95155.8
2017-Feb-10 20:33N 31°15' E 122°05'7353509077.2
2017-Feb-10 20:33N 05°16' W 004°02'7167560903.3
2017-Feb-10 20:32N 24°24' E 117°57'4737346.1
2017-Feb-10 20:28N 31°58' E 120°27'95104.3
2017-Feb-10 19:33N 31°15' E 122°05'7353401091.1
2017-Feb-10 19:32N 05°16' W 004°02'7167832308.1
2017-Feb-10 19:32N 24°24' E 117°57'47350126.5
2017-Feb-10 19:31N 31°58' E 120°27'9598.2
2017-Feb-10 18:33N 31°15' E 122°05'9510047.6
2017-Feb-10 18:33N 31°59' E 120°27'72561004739.5
2017-Feb-10 18:32N 05°16' W 004°02'7167832308.4
2017-Feb-10 18:32N 24°24' E 117°57'466479.3
2017-Feb-10 17:33N 31°15' E 122°05'46617122.3
2017-Feb-10 17:32N 24°24' E 117°57'4748275.0
2017-Feb-10 17:28N 31°59' E 120°26'7256140443.1
2017-Feb-10 17:25N 05°16' W 004°02'73538511.9
2017-Feb-10 16:33N 31°15' E 122°05'46616950.6
2017-Feb-10 16:32N 24°24' E 117°57'7167138717.1
2017-Feb-10 16:29N 05°16' W 004°02'73537987.9
2017-Feb-10 15:33N 31°15' E 122°05'971328.2
2017-Feb-10 15:29N 31°58' E 120°24'22293.0
2017-Feb-10 15:29N 31°59' E 120°26'474100279.5
2017-Feb-10 15:29N 24°24' E 117°57'7167860037.9
2017-Feb-10 15:28N 05°16' W 004°02'73538048.6
2017-Feb-10 14:33N 31°15' E 122°05'953981.9
2017-Feb-10 14:32N 31°59' E 120°26'474142054.0
2017-Feb-10 14:32N 24°24' E 117°57'466479.2
2017-Feb-10 13:33N 31°15' E 122°05'9631306.8
2017-Feb-10 13:33N 31°58' E 120°25'47319790.3
2017-Feb-10 13:32N 24°24' E 117°57'46424538.4
2017-Feb-10 13:31N 31°30' E 121°23'56958.9
2017-Feb-10 13:27N 31°59' E 120°26'95106.3
2017-Feb-10 12:33N 31°15' E 122°05'96344432.6
2017-Feb-10 12:33N 31°58' E 120°25'536768.5
2017-Feb-10 12:33N 31°33' E 121°20'46523911.8
2017-Feb-10 12:32N 24°24' E 117°57'47316079.5
2017-Feb-10 12:30N 31°59' E 120°26'1 1.1
2017-Feb-10 11:33N 31°58' E 120°25'96344403.7
2017-Feb-10 11:33N 31°15' E 122°05'46617118.5
2017-Feb-10 11:32N 24°24' E 117°57'46820790.0
2017-Feb-10 11:30N 31°38' E 121°15'471188.6
2017-Feb-10 11:28N 31°59' E 120°26'1 1.1
2017-Feb-10 10:33N 31°58' E 120°25'47317189.1
2017-Feb-10 10:32N 24°24' E 117°57'47363124.9
2017-Feb-10 10:31N 31°59' E 120°26'725622212.9
2017-Feb-10 10:12N 05°16' W 004°02'735311519.6
2017-Feb-10 09:33N 31°15' E 122°05'96344393.8
2017-Feb-10 09:33N 31°58' E 120°25'47317543.5
2017-Feb-10 09:32N 24°24' E 117°57'47312813.9
2017-Feb-10 09:30N 31°59' E 120°26'725634599.4
2017-Feb-10 09:17N 05°16' W 004°02'735310134.8
2017-Feb-10 08:33N 31°15' E 122°05'96172196.9
2017-Feb-10 08:33N 31°58' E 120°25'47317017.2
2017-Feb-10 08:32N 24°24' E 117°57'47343698.2
2017-Feb-10 08:31N 31°59' E 120°26'7256214118.7
2017-Feb-10 08:29N 05°16' W 004°02'73537928.2
2017-Feb-10 07:33N 31°15' E 122°05'73532206000.2
2017-Feb-10 07:33N 05°16' W 004°02'7255442698.2
2017-Feb-10 07:32N 31°58' E 120°25'47363026.5
2017-Feb-10 07:32N 24°24' E 117°57'4731598.6
2017-Feb-10 07:14N 31°59' E 120°26'95140.0
2017-Feb-10 06:33N 31°15' E 122°05'46619063.8
2017-Feb-10 06:32N 24°24' E 117°57'71671720132.1
2017-Feb-10 06:32N 05°16' W 004°02'725642753.2
2017-Feb-10 06:21N 31°59' E 120°26'95119.1
2017-Feb-10 05:33N 31°15' E 122°05'9634440.4
2017-Feb-10 05:33N 31°58' E 120°25'47319787.6
2017-Feb-10 05:32N 24°24' E 117°57'47318936.1
2017-Feb-10 05:30N 31°59' E 120°26'1 1.0
2017-Feb-10 04:33N 31°58' E 120°25'47317366.2
2017-Feb-10 04:32N 24°24' E 117°57'4735857.5
2017-Feb-10 04:27N 31°59' E 120°26'72561741492.8
2017-Feb-10 04:27N 05°16' W 004°02'72558174.7
2017-Feb-10 03:33N 31°58' E 120°25'9634535.9
2017-Feb-10 03:33N 31°15' E 122°05'46618643.4
2017-Feb-10 03:32N 24°24' E 117°57'4736791.2
2017-Feb-10 03:28N 31°59' E 120°26'95105.4
2017-Feb-10 02:33N 31°15' E 122°05'46617121.5
2017-Feb-10 02:32N 24°24' E 117°57'47332722.1
2017-Feb-10 02:31N 31°58' E 120°25'116.1
2017-Feb-10 02:26N 31°59' E 120°26'95108.3
2017-Feb-10 01:33N 31°15' E 122°05'  

Dump ship's entire track history